Observation data for Boys Ranch on 02/12/2018      Previous  Date  Next       Current Mesonet Observations  Soil Data  Daily Summary Page  Observations in Plain Language
KBY1 120600Z 35000KT M04/M16 A302 RMK A01 T10401159  RH  039%=      5-min Rain = 0
KBY1 120601Z 01002KT M04/M16 A302 RMK A01 T10401159  RH  039%=      5-min Rain = 0
KBY1 120602Z 03001KT M04/M16 A302 RMK A01 T10391158  RH  039%=      5-min Rain = 0
KBY1 120603Z 03002KT M04/M16 A302 RMK A01 T10381158  RH  039%=      5-min Rain = 0
KBY1 120604Z 03003KT M04/M16 A302 RMK A01 T10371158  RH  039%=      5-min Rain = 0
KBY1 120605Z 04003KT M04/M16 A302 RMK A01 T10351157  RH  038%=      5-min Rain = 0
KBY1 120606Z 04004KT M03/M16 A302 RMK A01 T10341157  RH  038%=      5-min Rain = 0
KBY1 120607Z 04004KT M03/M16 A302 RMK A01 T10341158  RH  038%=      5-min Rain = 0
KBY1 120608Z 03003KT M03/M16 A3021 RMK A01 T10341159  RH  038%=      5-min Rain = 0
KBY1 120609Z 02002KT M04/M16 A3021 RMK A01 T10381163  RH  037%=      5-min Rain = 0
KBY1 120610Z 03002KT M04/M16 A3021 RMK A01 T10421164  RH  038%=      5-min Rain = 0
KBY1 120611Z 03003KT M04/M16 A3021 RMK A01 T10421161  RH  039%=      5-min Rain = 0
KBY1 120612Z 04002KT M04/M16 A3021 RMK A01 T10421159  RH  040%=      5-min Rain = 0
KBY1 120613Z 05001KT M04/M16 A3021 RMK A01 T10401158  RH  039%=      5-min Rain = 0
KBY1 120614Z 07001KT M04/M16 A3021 RMK A01 T10401159  RH  039%=      5-min Rain = 0
KBY1 120615Z 10000KT M04/M16 A3021 RMK A01 T10401159  RH  039%=      5-min Rain = 0
KBY1 120616Z 10001KT M04/M16 A3021 RMK A01 T10401160  RH  039%=      5-min Rain = 0
KBY1 120617Z 09001KT M04/M16 A3021 RMK A01 T10411160  RH  039%=      5-min Rain = 0
KBY1 120618Z 07001KT M04/M16 A3021 RMK A01 T10421162  RH  039%=      5-min Rain = 0
KBY1 120619Z 07002KT M05/M16 A3021 RMK A01 T10451163  RH  039%=      5-min Rain = 0
KBY1 120620Z 06002KT M05/M16 A3021 RMK A01 T10471163  RH  040%=      5-min Rain = 0
KBY1 120621Z 05001KT M05/M16 A3021 RMK A01 T10471161  RH  040%=      5-min Rain = 0
KBY1 120622Z 00000KT M05/M16 A3021 RMK A01 T10471161  RH  041%=      5-min Rain = 0
KBY1 120623Z 00000KT M05/M16 A3021 RMK A01 T10471160  RH  041%=      5-min Rain = 0
KBY1 120624Z 03000KT M05/M16 A3021 RMK A01 T10481160  RH  041%=      5-min Rain = 0
KBY1 120625Z 00000KT M05/M16 A3021 RMK A01 T10471159  RH  041%=      5-min Rain = 0
KBY1 120626Z 04000KT M05/M16 A3021 RMK A01 T10461159  RH  041%=      5-min Rain = 0
KBY1 120627Z 03001KT M05/M16 A3021 RMK A01 T10451159  RH  041%=      5-min Rain = 0
KBY1 120628Z 02001KT M05/M16 A3021 RMK A01 T10451159  RH  040%=      5-min Rain = 0
KBY1 120629Z 05001KT M04/M16 A3021 RMK A01 T10441159  RH  040%=      5-min Rain = 0
KBY1 120630Z 05001KT M04/M16 A3021 RMK A01 T10441159  RH  040%=      5-min Rain = 0
KBY1 120631Z 05001KT M04/M16 A3021 RMK A01 T10441159  RH  040%=      5-min Rain = 0
KBY1 120632Z 04002KT M05/M16 A3021 RMK A01 T10461162  RH  040%=      5-min Rain = 0
KBY1 120633Z 05002KT M05/M16 A3021 RMK A01 T10461159  RH  041%=      5-min Rain = 0
KBY1 120634Z 04002KT M04/M16 A3021 RMK A01 T10431157  RH  041%=      5-min Rain = 0
KBY1 120635Z 04001KT M04/M16 A3021 RMK A01 T10411157  RH  040%=      5-min Rain = 0
KBY1 120636Z 04001KT M04/M16 A3021 RMK A01 T10421160  RH  039%=      5-min Rain = 0
KBY1 120637Z 04001KT M05/M16 A3021 RMK A01 T10461164  RH  039%=      5-min Rain = 0
KBY1 120638Z 04001KT M05/M16 A3021 RMK A01 T10481163  RH  040%=      5-min Rain = 0
KBY1 120639Z 04001KT M05/M17 A3021 RMK A01 T10511165  RH  040%=      5-min Rain = 0
KBY1 120640Z 04001KT M05/M17 A3021 RMK A01 T10541167  RH  041%=      5-min Rain = 0
KBY1 120641Z 04002KT M06/M17 A3021 RMK A01 T10581168  RH  041%=      5-min Rain = 0
KBY1 120642Z 03002KT M06/M17 A3021 RMK A01 T10621169  RH  042%=      5-min Rain = 0
KBY1 120643Z 03003KT M07/M17 A3021 RMK A01 T10651168  RH  044%=      5-min Rain = 0
KBY1 120644Z 04003KT M06/M16 A3021 RMK A01 T10641164  RH  045%=      5-min Rain = 0
KBY1 120645Z 04003KT M06/M16 A3022 RMK A01 T10611160  RH  045%=      5-min Rain = 0
KBY1 120646Z 04002KT M06/M16 A3022 RMK A01 T10601162  RH  044%=      5-min Rain = 0
KBY1 120647Z 04002KT M06/M17 A3022 RMK A01 T10611165  RH  044%=      5-min Rain = 0
KBY1 120648Z 04002KT M06/M17 A3021 RMK A01 T10631165  RH  044%=      5-min Rain = 0
KBY1 120649Z 04003KT M06/M16 A3021 RMK A01 T10631163  RH  045%=      5-min Rain = 0
KBY1 120650Z 06003KT M06/M16 A3021 RMK A01 T10621163  RH  045%=      5-min Rain = 0
KBY1 120651Z 06003KT M06/M16 A3021 RMK A01 T10621163  RH  045%=      5-min Rain = 0
KBY1 120652Z 06003KT M06/M16 A3021 RMK A01 T10621164  RH  044%=      5-min Rain = 0
KBY1 120653Z 05003KT M06/M17 A3021 RMK A01 T10641165  RH  044%=      5-min Rain = 0
KBY1 120654Z 04003KT M06/M17 A3021 RMK A01 T10641165  RH  045%=      5-min Rain = 0
KBY1 120655Z 06003KT M06/M16 A3021 RMK A01 T10641164  RH  045%=      5-min Rain = 0
KBY1 120656Z 06003KT M06/M16 A3021 RMK A01 T10631163  RH  045%=      5-min Rain = 0
KBY1 120657Z 05003KT M06/M16 A3021 RMK A01 T10621163  RH  045%=      5-min Rain = 0
KBY1 120658Z 04002KT M06/M16 A3021 RMK A01 T10601161  RH  045%=      5-min Rain = 0
KBY1 120659Z 04002KT M06/M16 A3021 RMK A01 T10571157  RH  045%=      5-min Rain = 0
KBY1 120700Z 04002KT M05/M16 A3022 RMK A01 T10531155  RH  044%=      5-min Rain = 0
KBY1 120701Z 05002KT M05/M16 A3021 RMK A01 T10491155  RH  043%=      5-min Rain = 0
KBY1 120702Z 05001KT M05/M16 A3022 RMK A01 T10461155  RH  042%=      5-min Rain = 0
KBY1 120703Z 08001KT M05/M16 A3022 RMK A01 T10451156  RH  041%=      5-min Rain = 0
KBY1 120704Z 10001KT M05/M16 A3022 RMK A01 T10481162  RH  040%=      5-min Rain = 0
KBY1 120705Z 02000KT M05/M17 A3022 RMK A01 T10531165  RH  041%=      5-min Rain = 0
KBY1 120706Z 28001KT M06/M17 A3022 RMK A01 T10561167  RH  041%=      5-min Rain = 0
KBY1 120707Z 24003KT M06/M17 A3022 RMK A01 T10601167  RH  042%=      5-min Rain = 0
KBY1 120708Z 25003KT M07/M17 A3022 RMK A01 T10651169  RH  043%=      5-min Rain = 0
KBY1 120709Z 24003KT M07/M17 A3022 RMK A01 T10661166  RH  045%=      5-min Rain = 0
KBY1 120710Z 23002KT M06/M16 A3022 RMK A01 T10631161  RH  046%=      5-min Rain = 0
KBY1 120711Z 25000KT M06/M16 A3022 RMK A01 T10591158  RH  045%=      5-min Rain = 0
KBY1 120712Z 27000KT M06/M16 A3022 RMK A01 T10581159  RH  045%=      5-min Rain = 0
KBY1 120713Z 25000KT M06/M16 A3022 RMK A01 T10581160  RH  044%=      5-min Rain = 0
KBY1 120714Z 07000KT M06/M16 A3022 RMK A01 T10581161  RH  044%=      5-min Rain = 0
KBY1 120715Z 00000KT M06/M17 A3022 RMK A01 T10621166  RH  044%=      5-min Rain = 0
KBY1 120716Z 00000KT M07/M17 A3022 RMK A01 T10651167  RH  044%=      5-min Rain = 0
KBY1 120717Z 06000KT M07/M17 A3022 RMK A01 T10671166  RH  045%=      5-min Rain = 0
KBY1 120718Z 06000KT M07/M17 A3022 RMK A01 T10671165  RH  046%=      5-min Rain = 0
KBY1 120719Z 05000KT M07/M17 A3022 RMK A01 T10671165  RH  046%=      5-min Rain = 0
KBY1 120720Z 05000KT M07/M17 A3022 RMK A01 T10691167  RH  046%=      5-min Rain = 0
KBY1 120721Z 07000KT M07/M17 A3022 RMK A01 T10721168  RH  046%=      5-min Rain = 0
KBY1 120722Z 09001KT M07/M17 A3022 RMK A01 T10731167  RH  047%=      5-min Rain = 0
KBY1 120723Z 06001KT M08/M17 A3022 RMK A01 T10751169  RH  047%=      5-min Rain = 0
KBY1 120724Z 05002KT M08/M17 A3022 RMK A01 T10771170  RH  047%=      5-min Rain = 0
KBY1 120725Z 05002KT M08/M17 A3022 RMK A01 T10791170  RH  048%=      5-min Rain = 0
KBY1 120726Z 05003KT M08/M17 A3022 RMK A01 T10811171  RH  049%=      5-min Rain = 0
KBY1 120727Z 03003KT M08/M17 A3022 RMK A01 T10841172  RH  049%=      5-min Rain = 0
KBY1 120728Z 04003KT M08/M17 A3022 RMK A01 T10841170  RH  050%=      5-min Rain = 0
KBY1 120729Z 04002KT M08/M17 A3022 RMK A01 T10811165  RH  051%=      5-min Rain = 0
KBY1 120730Z 02002KT M08/M16 A3022 RMK A01 T10771161  RH  051%=      5-min Rain = 0
KBY1 120731Z 01001KT M08/M16 A3022 RMK A01 T10751161  RH  050%=      5-min Rain = 0
KBY1 120732Z 01001KT M07/M16 A3022 RMK A01 T10731161  RH  049%=      5-min Rain = 0
KBY1 120733Z 01001KT M07/M16 A3022 RMK A01 T10711161  RH  049%=      5-min Rain = 0
KBY1 120734Z 01002KT M07/M16 A3022 RMK A01 T10701161  RH  048%=      5-min Rain = 0
KBY1 120735Z 03002KT M07/M16 A3022 RMK A01 T10681160  RH  048%=      5-min Rain = 0
KBY1 120736Z 06002KT M07/M16 A3022 RMK A01 T10661160  RH  047%=      5-min Rain = 0
KBY1 120737Z 07002KT M07/M16 A3022 RMK A01 T10651161  RH  047%=      5-min Rain = 0
KBY1 120738Z 07002KT M07/M17 A3022 RMK A01 T10671165  RH  046%=      5-min Rain = 0
KBY1 120739Z 07001KT M07/M17 A3022 RMK A01 T10721169  RH  046%=      5-min Rain = 0
KBY1 120740Z 09000KT M07/M17 A3022 RMK A01 T10731167  RH  047%=      5-min Rain = 0
KBY1 120741Z 03001KT M07/M16 A3022 RMK A01 T10721164  RH  048%=      5-min Rain = 0
KBY1 120742Z 02001KT M07/M16 A3022 RMK A01 T10701162  RH  048%=      5-min Rain = 0
KBY1 120743Z 13000KT M07/M16 A3022 RMK A01 T10691162  RH  048%=      5-min Rain = 0
KBY1 120744Z 11000KT M07/M17 A3022 RMK A01 T10721168  RH  046%=      5-min Rain = 0
KBY1 120745Z 04001KT M08/M17 A3022 RMK A01 T10771172  RH  046%=      5-min Rain = 0
KBY1 120746Z 08002KT M08/M17 A3022 RMK A01 T10791171  RH  048%=      5-min Rain = 0
KBY1 120747Z 08001KT M08/M17 A3022 RMK A01 T10831173  RH  048%=      5-min Rain = 0
KBY1 120748Z 06002KT M09/M17 A3022 RMK A01 T10861174  RH  049%=      5-min Rain = 0
KBY1 120749Z 06001KT M09/M18 A3022 RMK A01 T10911177  RH  050%=      5-min Rain = 0
KBY1 120750Z 05002KT M09/M18 A3022 RMK A01 T10931175  RH  051%=      5-min Rain = 0
KBY1 120751Z 04002KT M09/M17 A3021 RMK A01 T10921171  RH  053%=      5-min Rain = 0
KBY1 120752Z 04003KT M09/M17 A3021 RMK A01 T10901168  RH  053%=      5-min Rain = 0
KBY1 120753Z 05003KT M09/M17 A3021 RMK A01 T10861165  RH  053%=      5-min Rain = 0
KBY1 120754Z 07002KT M09/M17 A3022 RMK A01 T10851166  RH  052%=      5-min Rain = 0
KBY1 120755Z 06003KT M09/M17 A3022 RMK A01 T10861168  RH  052%=      5-min Rain = 0
KBY1 120756Z 06003KT M09/M17 A3022 RMK A01 T10861167  RH  052%=      5-min Rain = 0
KBY1 120757Z 05003KT M09/M17 A3022 RMK A01 T10861166  RH  052%=      5-min Rain = 0
KBY1 120758Z 05002KT M08/M17 A3022 RMK A01 T10841165  RH  052%=      5-min Rain = 0
KBY1 120759Z 03002KT M08/M17 A3022 RMK A01 T10831165  RH  052%=      5-min Rain = 0
KBY1 120800Z 03001KT M08/M17 A3022 RMK A01 T10821165  RH  051%=      5-min Rain = 0
KBY1 120801Z 04001KT M08/M17 A3022 RMK A01 T10811165  RH  051%=      5-min Rain = 0
KBY1 120802Z 06002KT M08/M17 A3022 RMK A01 T10811167  RH  050%=      5-min Rain = 0
KBY1 120803Z 08002KT M08/M17 A3022 RMK A01 T10821168  RH  050%=      5-min Rain = 0
KBY1 120804Z 10001KT M09/M18 A3022 RMK A01 T10871176  RH  049%=      5-min Rain = 0
KBY1 120805Z 09001KT M10/M19 A3022 RMK A01 T10951185  RH  048%=      5-min Rain = 0
KBY1 120806Z 10001KT M10/M18 A3022 RMK A01 T11001183  RH  051%=      5-min Rain = 0
KBY1 120807Z 10002KT M10/M18 A3022 RMK A01 T10991176  RH  053%=      5-min Rain = 0
KBY1 120808Z 08002KT M10/M17 A3021 RMK A01 T10971171  RH  055%=      5-min Rain = 0
KBY1 120809Z 07001KT M09/M17 A3021 RMK A01 T10931166  RH  056%=      5-min Rain = 0
KBY1 120810Z 07000KT M09/M16 A3022 RMK A01 T10901163  RH  055%=      5-min Rain = 0
KBY1 120811Z 00000KT M09/M16 A3022 RMK A01 T10871162  RH  055%=      5-min Rain = 0
KBY1 120812Z 07000KT M08/M16 A3022 RMK A01 T10841162  RH  053%=      5-min Rain = 0
KBY1 120813Z 20001KT M08/M16 A3022 RMK A01 T10831162  RH  053%=      5-min Rain = 0
KBY1 120814Z 22002KT M08/M16 A3022 RMK A01 T10821164  RH  052%=      5-min Rain = 0
KBY1 120815Z 23001KT M08/M16 A3022 RMK A01 T10831163  RH  053%=      5-min Rain = 0
KBY1 120816Z 24000KT M08/M16 A3022 RMK A01 T10811159  RH  053%=      5-min Rain = 0
KBY1 120817Z 00000KT M08/M16 A3022 RMK A01 T10791158  RH  053%=      5-min Rain = 0
KBY1 120818Z 00000KT M08/M16 A3022 RMK A01 T10771157  RH  053%=      5-min Rain = 0
KBY1 120819Z 17000KT M08/M16 A3022 RMK A01 T10761158  RH  052%=      5-min Rain = 0
KBY1 120820Z 17001KT M08/M16 A3022 RMK A01 T10751159  RH  051%=      5-min Rain = 0
KBY1 120821Z 16001KT M07/M16 A3022 RMK A01 T10741160  RH  050%=      5-min Rain = 0
KBY1 120822Z 20002KT M08/M16 A3022 RMK A01 T10761164  RH  049%=      5-min Rain = 0
KBY1 120823Z 21001KT M08/M17 A3022 RMK A01 T10801167  RH  050%=      5-min Rain = 0
KBY1 120824Z 19001KT M08/M16 A3022 RMK A01 T10821164  RH  052%=      5-min Rain = 0
KBY1 120825Z 17001KT M08/M16 A3022 RMK A01 T10821162  RH  053%=      5-min Rain = 0
KBY1 120826Z 17001KT M08/M16 A3022 RMK A01 T10821161  RH  053%=      5-min Rain = 0
KBY1 120827Z 00000KT M08/M16 A3022 RMK A01 T10821162  RH  053%=      5-min Rain = 0
KBY1 120828Z 00000KT M08/M16 A3022 RMK A01 T10821161  RH  053%=      5-min Rain = 0
KBY1 120829Z 00000KT M08/M16 A3022 RMK A01 T10811161  RH  053%=      5-min Rain = 0
KBY1 120830Z 00000KT M08/M16 A3022 RMK A01 T10811161  RH  053%=      5-min Rain = 0
KBY1 120831Z 05000KT M08/M16 A3022 RMK A01 T10811160  RH  053%=      5-min Rain = 0
KBY1 120832Z 05001KT M08/M16 A3022 RMK A01 T10791159  RH  053%=      5-min Rain = 0
KBY1 120833Z 06001KT M08/M16 A3022 RMK A01 T10791160  RH  052%=      5-min Rain = 0
KBY1 120834Z 03001KT M08/M16 A3022 RMK A01 T10781160  RH  052%=      5-min Rain = 0
KBY1 120835Z 01000KT M08/M16 A3022 RMK A01 T10791162  RH  051%=      5-min Rain = 0
KBY1 120836Z 01002KT M08/M16 A3022 RMK A01 T10791162  RH  052%=      5-min Rain = 0
KBY1 120837Z 03002KT M08/M16 A3022 RMK A01 T10781159  RH  052%=      5-min Rain = 0
KBY1 120838Z 04002KT M08/M16 A3022 RMK A01 T10761159  RH  051%=      5-min Rain = 0
KBY1 120839Z 04002KT M08/M16 A3022 RMK A01 T10751160  RH  051%=      5-min Rain = 0
KBY1 120840Z 04003KT M07/M16 A3022 RMK A01 T10721158  RH  050%=      5-min Rain = 0
KBY1 120841Z 04003KT M07/M16 A3022 RMK A01 T10701157  RH  050%=      5-min Rain = 0
KBY1 120842Z 04003KT M07/M16 A3022 RMK A01 T10681157  RH  049%=      5-min Rain = 0
KBY1 120843Z 05004KT M07/M16 A3022 RMK A01 T10671157  RH  049%=      5-min Rain = 0
KBY1 120844Z 05003KT M07/M16 A3022 RMK A01 T10651157  RH  048%=      5-min Rain = 0
KBY1 120845Z 05003KT M07/M16 A3022 RMK A01 T10651159  RH  047%=      5-min Rain = 0
KBY1 120846Z 04003KT M07/M16 A3022 RMK A01 T10661160  RH  047%=      5-min Rain = 0
KBY1 120847Z 03002KT M07/M16 A3022 RMK A01 T10671162  RH  047%=      5-min Rain = 0
KBY1 120848Z 03002KT M07/M16 A3022 RMK A01 T10681161  RH  048%=      5-min Rain = 0
KBY1 120849Z 03002KT M07/M16 A3022 RMK A01 T10691160  RH  048%=      5-min Rain = 0
KBY1 120850Z 04002KT M07/M16 A3022 RMK A01 T10681158  RH  049%=      5-min Rain = 0
KBY1 120851Z 05003KT M07/M16 A3023 RMK A01 T10671158  RH  048%=      5-min Rain = 0
KBY1 120852Z 04003KT M07/M16 A3023 RMK A01 T10671159  RH  048%=      5-min Rain = 0
KBY1 120853Z 03002KT M07/M16 A3023 RMK A01 T10681160  RH  048%=      5-min Rain = 0
KBY1 120854Z 03002KT M07/M16 A3023 RMK A01 T10681160  RH  048%=      5-min Rain = 0
KBY1 120855Z 02002KT M07/M16 A3023 RMK A01 T10681159  RH  048%=      5-min Rain = 0
KBY1 120856Z 03002KT M07/M16 A3023 RMK A01 T10671159  RH  048%=      5-min Rain = 0
KBY1 120857Z 04002KT M07/M16 A3023 RMK A01 T10681161  RH  048%=      5-min Rain = 0
KBY1 120858Z 04002KT M07/M16 A3023 RMK A01 T10691162  RH  048%=      5-min Rain = 0
KBY1 120859Z 05001KT M07/M16 A3023 RMK A01 T10701162  RH  048%=      5-min Rain = 0
KBY1 120900Z 05001KT M07/M16 A3023 RMK A01 T10721164  RH  048%=      5-min Rain = 0
KBY1 120901Z 05002KT M07/M16 A3022 RMK A01 T10741164  RH  048%=      5-min Rain = 0
KBY1 120902Z 05002KT M08/M16 A3022 RMK A01 T10751164  RH  049%=      5-min Rain = 0
KBY1 120903Z 07001KT M08/M16 A3023 RMK A01 T10751163  RH  049%=      5-min Rain = 0
KBY1 120904Z 08000KT M08/M16 A3023 RMK A01 T10761163  RH  050%=      5-min Rain = 0
KBY1 120905Z 07000KT M08/M17 A3022 RMK A01 T10781167  RH  049%=      5-min Rain = 0
KBY1 120906Z 08000KT M08/M17 A3022 RMK A01 T10801170  RH  048%=      5-min Rain = 0
KBY1 120907Z 00000KT M08/M17 A3022 RMK A01 T10821171  RH  049%=      5-min Rain = 0
KBY1 120908Z 00000KT M08/M17 A3022 RMK A01 T10831169  RH  050%=      5-min Rain = 0
KBY1 120909Z 00000KT M08/M17 A3022 RMK A01 T10841166  RH  051%=      5-min Rain = 0
KBY1 120910Z 00000KT M08/M16 A3022 RMK A01 T10831164  RH  052%=      5-min Rain = 0
KBY1 120911Z 00000KT M08/M16 A3023 RMK A01 T10811162  RH  052%=      5-min Rain = 0
KBY1 120912Z 00000KT M08/M16 A3023 RMK A01 T10801162  RH  052%=      5-min Rain = 0
KBY1 120913Z 00000KT M08/M16 A3023 RMK A01 T10791161  RH  052%=      5-min Rain = 0
KBY1 120914Z 36001KT M08/M16 A3023 RMK A01 T10781161  RH  051%=      5-min Rain = 0
KBY1 120915Z 03001KT M08/M16 A3023 RMK A01 T10761160  RH  051%=      5-min Rain = 0
KBY1 120916Z 05001KT M08/M16 A3023 RMK A01 T10751160  RH  051%=      5-min Rain = 0
KBY1 120917Z 06002KT M07/M16 A3023 RMK A01 T10741160  RH  050%=      5-min Rain = 0
KBY1 120918Z 05002KT M08/M17 A3022 RMK A01 T10761166  RH  049%=      5-min Rain = 0
KBY1 120919Z 06002KT M09/M18 A3022 RMK A01 T10851176  RH  048%=      5-min Rain = 0
KBY1 120920Z 07001KT M09/M18 A3023 RMK A01 T10911181  RH  048%=      5-min Rain = 0
KBY1 120921Z 13001KT M10/M18 A3023 RMK A01 T10951181  RH  050%=      5-min Rain = 0
KBY1 120922Z 15000KT M10/M18 A3023 RMK A01 T10971179  RH  051%=      5-min Rain = 0
KBY1 120923Z 00000KT M10/M18 A3023 RMK A01 T10981175  RH  054%=      5-min Rain = 0
KBY1 120924Z 00000KT M10/M17 A3023 RMK A01 T10971169  RH  056%=      5-min Rain = 0
KBY1 120925Z 18000KT M09/M16 A3023 RMK A01 T10941164  RH  057%=      5-min Rain = 0
KBY1 120926Z 15000KT M09/M16 A3023 RMK A01 T10911162  RH  056%=      5-min Rain = 0
KBY1 120927Z 12001KT M09/M16 A3023 RMK A01 T10891164  RH  055%=      5-min Rain = 0
KBY1 120928Z 12001KT M09/M17 A3023 RMK A01 T10911168  RH  053%=      5-min Rain = 0
KBY1 120929Z 12002KT M10/M18 A3023 RMK A01 T10961176  RH  052%=      5-min Rain = 0
KBY1 120930Z 11002KT M10/M18 A3022 RMK A01 T11011180  RH  052%=      5-min Rain = 0
KBY1 120931Z 10002KT M11/M18 A3022 RMK A01 T11051180  RH  054%=      5-min Rain = 0
KBY1 120932Z 11002KT M11/M18 A3022 RMK A01 T11081182  RH  055%=      5-min Rain = 0
KBY1 120933Z 10002KT M11/M18 A3022 RMK A01 T11081178  RH  056%=      5-min Rain = 0
KBY1 120934Z 09002KT M11/M17 A3022 RMK A01 T11061173  RH  058%=      5-min Rain = 0
KBY1 120935Z 09003KT M10/M17 A3022 RMK A01 T11031167  RH  059%=      5-min Rain = 0
KBY1 120936Z 09003KT M10/M17 A3023 RMK A01 T11001165  RH  059%=      5-min Rain = 0
KBY1 120937Z 08002KT M10/M16 A3023 RMK A01 T10981162  RH  059%=      5-min Rain = 0
KBY1 120938Z 09002KT M10/M16 A3023 RMK A01 T10951160  RH  059%=      5-min Rain = 0
KBY1 120939Z 08003KT M09/M16 A3023 RMK A01 T10931159  RH  059%=      5-min Rain = 0
KBY1 120940Z 08003KT M09/M16 A3023 RMK A01 T10901157  RH  058%=      5-min Rain = 0
KBY1 120941Z 09003KT M09/M16 A3023 RMK A01 T10881157  RH  057%=      5-min Rain = 0
KBY1 120942Z 09003KT M09/M16 A3023 RMK A01 T10851157  RH  056%=      5-min Rain = 0
KBY1 120943Z 10004KT M08/M16 A3023 RMK A01 T10841157  RH  056%=      5-min Rain = 0
KBY1 120944Z 09004KT M08/M16 A3023 RMK A01 T10841159  RH  055%=      5-min Rain = 0
KBY1 120945Z 09004KT M09/M16 A3023 RMK A01 T10851161  RH  054%=      5-min Rain = 0
KBY1 120946Z 10003KT M09/M16 A3023 RMK A01 T10861162  RH  054%=      5-min Rain = 0
KBY1 120947Z 10003KT M09/M16 A3023 RMK A01 T10861162  RH  054%=      5-min Rain = 0
KBY1 120948Z 10003KT M09/M16 A3023 RMK A01 T10871162  RH  054%=      5-min Rain = 0
KBY1 120949Z 10003KT M09/M16 A3023 RMK A01 T10871162  RH  055%=      5-min Rain = 0
KBY1 120950Z 09003KT M09/M16 A3023 RMK A01 T10871161  RH  055%=      5-min Rain = 0
KBY1 120951Z 09003KT M09/M16 A3023 RMK A01 T10871161  RH  055%=      5-min Rain = 0
KBY1 120952Z 09003KT M09/M16 A3023 RMK A01 T10871161  RH  055%=      5-min Rain = 0
KBY1 120953Z 09002KT M09/M16 A3023 RMK A01 T10871162  RH  055%=      5-min Rain = 0
KBY1 120954Z 09003KT M09/M16 A3023 RMK A01 T10871161  RH  055%=      5-min Rain = 0
KBY1 120955Z 09003KT M09/M16 A3023 RMK A01 T10861161  RH  055%=      5-min Rain = 0
KBY1 120956Z 08003KT M09/M16 A3023 RMK A01 T10861161  RH  055%=      5-min Rain = 0
KBY1 120957Z 09003KT M09/M16 A3023 RMK A01 T10861161  RH  054%=      5-min Rain = 0
KBY1 120958Z 09002KT M09/M16 A3023 RMK A01 T10861162  RH  054%=      5-min Rain = 0
KBY1 120959Z 09002KT M09/M16 A3023 RMK A01 T10861162  RH  054%=      5-min Rain = 0
KBY1 121000Z 07001KT M09/M16 A3023 RMK A01 T10871162  RH  054%=      5-min Rain = 0
KBY1 121001Z 07001KT M09/M16 A3023 RMK A01 T10871161  RH  055%=      5-min Rain = 0
KBY1 121002Z 07001KT M09/M16 A3023 RMK A01 T10861161  RH  055%=      5-min Rain = 0
KBY1 121003Z 07001KT M09/M16 A3023 RMK A01 T10861161  RH  055%=      5-min Rain = 0
KBY1 121004Z 07001KT M09/M16 A3023 RMK A01 T10861161  RH  055%=      5-min Rain = 0
KBY1 121005Z 08001KT M09/M16 A3023 RMK A01 T10861161  RH  055%=      5-min Rain = 0
KBY1 121006Z 10001KT M09/M16 A3023 RMK A01 T10861161  RH  055%=      5-min Rain = 0
KBY1 121007Z 10001KT M09/M16 A3023 RMK A01 T10861161  RH  055%=      5-min Rain = 0
KBY1 121008Z 10001KT M09/M16 A3023 RMK A01 T10861161  RH  055%=      5-min Rain = 0
KBY1 121009Z 10001KT M09/M16 A3023 RMK A01 T10861161  RH  055%=      5-min Rain = 0
KBY1 121010Z 10000KT M09/M16 A3023 RMK A01 T10861161  RH  055%=      5-min Rain = 0
KBY1 121011Z 06001KT M09/M16 A3023 RMK A01 T10861161  RH  055%=      5-min Rain = 0
KBY1 121012Z 07001KT M09/M16 A3023 RMK A01 T10861161  RH  055%=      5-min Rain = 0
KBY1 121013Z 08001KT M09/M16 A3023 RMK A01 T10861161  RH  055%=      5-min Rain = 0
KBY1 121014Z 08001KT M09/M16 A3023 RMK A01 T10861161  RH  055%=      5-min Rain = 0
KBY1 121015Z 05001KT M09/M16 A3023 RMK A01 T10871162  RH  055%=      5-min Rain = 0
KBY1 121016Z 06001KT M09/M16 A3023 RMK A01 T10871161  RH  055%=      5-min Rain = 0
KBY1 121017Z 04002KT M09/M16 A3023 RMK A01 T10871160  RH  055%=      5-min Rain = 0
KBY1 121018Z 05001KT M09/M16 A3023 RMK A01 T10871160  RH  055%=      5-min Rain = 0
KBY1 121019Z 04001KT M09/M16 A3023 RMK A01 T10861161  RH  055%=      5-min Rain = 0
KBY1 121020Z 05001KT M09/M16 A3023 RMK A01 T10861160  RH  055%=      5-min Rain = 0
KBY1 121021Z 06002KT M08/M16 A3023 RMK A01 T10841158  RH  055%=      5-min Rain = 0
KBY1 121022Z 07002KT M08/M16 A3023 RMK A01 T10841158  RH  055%=      5-min Rain = 0
KBY1 121023Z 07002KT M08/M16 A3023 RMK A01 T10831158  RH  055%=      5-min Rain = 0
KBY1 121024Z 07002KT M08/M16 A3023 RMK A01 T10821157  RH  054%=      5-min Rain = 0
KBY1 121025Z 05001KT M08/M16 A3023 RMK A01 T10821158  RH  054%=      5-min Rain = 0
KBY1 121026Z 06002KT M08/M16 A3023 RMK A01 T10821158  RH  054%=      5-min Rain = 0
KBY1 121027Z 05002KT M08/M16 A3023 RMK A01 T10811158  RH  054%=      5-min Rain = 0
KBY1 121028Z 06002KT M08/M16 A3023 RMK A01 T10811158  RH  054%=      5-min Rain = 0
KBY1 121029Z 07002KT M08/M16 A3023 RMK A01 T10811158  RH  054%=      5-min Rain = 0
KBY1 121030Z 06002KT M08/M16 A3023 RMK A01 T10811158  RH  054%=      5-min Rain = 0
KBY1 121031Z 06003KT M08/M16 A3023 RMK A01 T10811158  RH  054%=      5-min Rain = 0
KBY1 121032Z 06003KT M08/M16 A3024 RMK A01 T10801158  RH  054%=      5-min Rain = 0
KBY1 121033Z 06003KT M08/M16 A3023 RMK A01 T10811158  RH  054%=      5-min Rain = 0
KBY1 121034Z 06002KT M08/M16 A3023 RMK A01 T10801157  RH  054%=      5-min Rain = 0
KBY1 121035Z 06003KT M08/M16 A3023 RMK A01 T10801157  RH  054%=      5-min Rain = 0
KBY1 121036Z 07003KT M08/M16 A3023 RMK A01 T10801157  RH  054%=      5-min Rain = 0
KBY1 121037Z 07003KT M08/M16 A3023 RMK A01 T10801157  RH  054%=      5-min Rain = 0
KBY1 121038Z 08003KT M08/M16 A3023 RMK A01 T10801157  RH  054%=      5-min Rain = 0
KBY1 121039Z 07003KT M08/M16 A3023 RMK A01 T10801158  RH  054%=      5-min Rain = 0
KBY1 121040Z 07002KT M08/M16 A3023 RMK A01 T10811158  RH  054%=      5-min Rain = 0
KBY1 121041Z 07002KT M08/M16 A3023 RMK A01 T10821158  RH  054%=      5-min Rain = 0
KBY1 121042Z 07002KT M08/M16 A3024 RMK A01 T10821158  RH  054%=      5-min Rain = 0
KBY1 121043Z 06002KT M08/M16 A3023 RMK A01 T10821157  RH  055%=      5-min Rain = 0
KBY1 121044Z 05002KT M08/M16 A3023 RMK A01 T10811156  RH  055%=      5-min Rain = 0
KBY1 121045Z 05002KT M08/M15 A3023 RMK A01 T10801154  RH  055%=      5-min Rain = 0
KBY1 121046Z 06002KT M08/M15 A3024 RMK A01 T10781153  RH  055%=      5-min Rain = 0
KBY1 121047Z 05002KT M08/M15 A3024 RMK A01 T10771154  RH  054%=      5-min Rain = 0
KBY1 121048Z 05002KT M08/M15 A3024 RMK A01 T10771154  RH  054%=      5-min Rain = 0
KBY1 121049Z 05002KT M08/M16 A3024 RMK A01 T10771155  RH  054%=      5-min Rain = 0
KBY1 121050Z 05002KT M08/M16 A3024 RMK A01 T10761155  RH  054%=      5-min Rain = 0
KBY1 121051Z 05001KT M08/M15 A3024 RMK A01 T10761154  RH  054%=      5-min Rain = 0
KBY1 121052Z 06001KT M08/M15 A3024 RMK A01 T10771154  RH  054%=      5-min Rain = 0
KBY1 121053Z 07002KT M08/M15 A3024 RMK A01 T10761153  RH  054%=      5-min Rain = 0
KBY1 121054Z 08002KT M08/M15 A3024 RMK A01 T10761152  RH  054%=      5-min Rain = 0
KBY1 121055Z 09002KT M08/M15 A3024 RMK A01 T10761152  RH  054%=      5-min Rain = 0
KBY1 121056Z 09001KT M08/M15 A3024 RMK A01 T10761154  RH  054%=      5-min Rain = 0
KBY1 121057Z 10001KT M08/M16 A3024 RMK A01 T10801160  RH  052%=      5-min Rain = 0
KBY1 121058Z 08001KT M08/M16 A3024 RMK A01 T10841164  RH  053%=      5-min Rain = 0
KBY1 121059Z 08001KT M09/M17 A3024 RMK A01 T10881165  RH  054%=      5-min Rain = 0
KBY1 121100Z 08001KT M09/M16 A3024 RMK A01 T10901164  RH  055%=      5-min Rain = 0
KBY1 121101Z 08002KT M09/M16 A3024 RMK A01 T10901162  RH  056%=      5-min Rain = 0
KBY1 121102Z 07001KT M09/M16 A3024 RMK A01 T10901160  RH  057%=      5-min Rain = 0
KBY1 121103Z 07002KT M09/M16 A3024 RMK A01 T10911161  RH  057%=      5-min Rain = 0
KBY1 121104Z 08002KT M09/M16 A3024 RMK A01 T10921161  RH  057%=      5-min Rain = 0
KBY1 121105Z 07003KT M09/M16 A3024 RMK A01 T10931162  RH  057%=      5-min Rain = 0
KBY1 121106Z 08004KT M09/M16 A3025 RMK A01 T10941162  RH  058%=      5-min Rain = 0
KBY1 121107Z 08004KT M09/M16 A3025 RMK A01 T10941160  RH  059%=      5-min Rain = 0
KBY1 121108Z 08003KT M09/M16 A3025 RMK A01 T10911157  RH  059%=      5-min Rain = 0
KBY1 121109Z 07003KT M09/M16 A3025 RMK A01 T10891155  RH  059%=      5-min Rain = 0
KBY1 121110Z 07003KT M09/M15 A3025 RMK A01 T10861153  RH  059%=      5-min Rain = 0
KBY1 121111Z 07004KT M08/M15 A3025 RMK A01 T10841152  RH  058%=      5-min Rain = 0
KBY1 121112Z 08003KT M08/M15 A3025 RMK A01 T10821152  RH  057%=      5-min Rain = 0
KBY1 121113Z 08004KT M08/M15 A3025 RMK A01 T10821152  RH  057%=      5-min Rain = 0
KBY1 121114Z 08004KT M08/M15 A3025 RMK A01 T10811152  RH  057%=      5-min Rain = 0
KBY1 121115Z 09003KT M08/M15 A3025 RMK A01 T10811153  RH  056%=      5-min Rain = 0
KBY1 121116Z 09004KT M08/M15 A3025 RMK A01 T10821154  RH  056%=      5-min Rain = 0
KBY1 121117Z 08004KT M08/M15 A3025 RMK A01 T10821154  RH  056%=      5-min Rain = 0
KBY1 121118Z 08004KT M08/M15 A3025 RMK A01 T10821154  RH  056%=      5-min Rain = 0
KBY1 121119Z 08005KT M08/M15 A3025 RMK A01 T10831154  RH  057%=      5-min Rain = 0
KBY1 121120Z 08005KT M08/M16 A3024 RMK A01 T10841155  RH  057%=      5-min Rain = 0
KBY1 121121Z 08004KT M09/M15 A3024 RMK A01 T10851154  RH  057%=      5-min Rain = 0
KBY1 121122Z 08004KT M09/M15 A3024 RMK A01 T10861154  RH  058%=      5-min Rain = 0
KBY1 121123Z 08004KT M09/M15 A3024 RMK A01 T10871154  RH  058%=      5-min Rain = 0
KBY1 121124Z 08004KT M09/M15 A3025 RMK A01 T10871154  RH  058%=      5-min Rain = 0
KBY1 121125Z 08004KT M09/M16 A3025 RMK A01 T10891155  RH  059%=      5-min Rain = 0
KBY1 121126Z 07003KT M09/M15 A3025 RMK A01 T10891154  RH  059%=      5-min Rain = 0
KBY1 121127Z 07003KT M09/M15 A3025 RMK A01 T10891153  RH  060%=      5-min Rain = 0
KBY1 121128Z 07003KT M09/M15 A3025 RMK A01 T10871151  RH  060%=      5-min Rain = 0
KBY1 121129Z 06003KT M09/M15 A3025 RMK A01 T10851149  RH  060%=      5-min Rain = 0
KBY1 121130Z 06003KT M08/M15 A3025 RMK A01 T10831149  RH  059%=      5-min Rain = 0
KBY1 121131Z 06003KT M08/M15 A3025 RMK A01 T10821149  RH  059%=      5-min Rain = 0
KBY1 121132Z 06004KT M08/M15 A3025 RMK A01 T10801148  RH  058%=      5-min Rain = 0
KBY1 121133Z 07004KT M08/M15 A3025 RMK A01 T10791148  RH  058%=      5-min Rain = 0
KBY1 121134Z 06004KT M08/M15 A3025 RMK A01 T10781148  RH  057%=      5-min Rain = 0
KBY1 121135Z 07004KT M08/M15 A3025 RMK A01 T10771148  RH  057%=      5-min Rain = 0
KBY1 121136Z 06004KT M08/M15 A3025 RMK A01 T10761148  RH  056%=      5-min Rain = 0
KBY1 121137Z 07004KT M08/M15 A3025 RMK A01 T10751148  RH  056%=      5-min Rain = 0
KBY1 121138Z 07004KT M07/M15 A3025 RMK A01 T10741147  RH  056%=      5-min Rain = 0
KBY1 121139Z 07004KT M07/M15 A3025 RMK A01 T10731148  RH  055%=      5-min Rain = 0
KBY1 121140Z 06004KT M07/M15 A3025 RMK A01 T10731148  RH  055%=      5-min Rain = 0
KBY1 121141Z 07004KT M07/M15 A3025 RMK A01 T10731148  RH  055%=      5-min Rain = 0
KBY1 121142Z 06003KT M07/M15 A3025 RMK A01 T10731148  RH  055%=      5-min Rain = 0
KBY1 121143Z 07004KT M07/M15 A3025 RMK A01 T10721148  RH  055%=      5-min Rain = 0
KBY1 121144Z 06003KT M07/M15 A3025 RMK A01 T10711148  RH  054%=      5-min Rain = 0
KBY1 121145Z 07003KT M07/M15 A3025 RMK A01 T10711148  RH  054%=      5-min Rain = 0
KBY1 121146Z 07003KT M07/M15 A3025 RMK A01 T10721149  RH  054%=      5-min Rain = 0
KBY1 121147Z 07003KT M07/M15 A3025 RMK A01 T10721149  RH  054%=      5-min Rain = 0
KBY1 121148Z 07003KT M07/M15 A3025 RMK A01 T10721148  RH  054%=      5-min Rain = 0
KBY1 121149Z 08003KT M07/M15 A3025 RMK A01 T10721149  RH  054%=      5-min Rain = 0
KBY1 121150Z 08003KT M07/M15 A3025 RMK A01 T10731149  RH  054%=      5-min Rain = 0
KBY1 121151Z 08003KT M07/M15 A3025 RMK A01 T10731149  RH  055%=      5-min Rain = 0
KBY1 121152Z 08003KT M07/M15 A3025 RMK A01 T10741150  RH  055%=      5-min Rain = 0
KBY1 121153Z 08002KT M08/M15 A3025 RMK A01 T10751150  RH  055%=      5-min Rain = 0
KBY1 121154Z 07002KT M08/M15 A3025 RMK A01 T10761150  RH  055%=      5-min Rain = 0
KBY1 121155Z 07002KT M08/M15 A3025 RMK A01 T10771151  RH  055%=      5-min Rain = 0
KBY1 121156Z 07002KT M08/M15 A3025 RMK A01 T10771151  RH  055%=      5-min Rain = 0
KBY1 121157Z 07002KT M08/M15 A3025 RMK A01 T10781152  RH  055%=      5-min Rain = 0
KBY1 121158Z 07002KT M08/M15 A3025 RMK A01 T10791152  RH  056%=      5-min Rain = 0
KBY1 121159Z 07002KT M08/M15 A3025 RMK A01 T10801153  RH  056%=      5-min Rain = 0
KBY1 121200Z 08001KT M08/M15 A3025 RMK A01 T10811152  RH  056%=      5-min Rain = 0
KBY1 121201Z 09001KT M08/M15 A3025 RMK A01 T10821153  RH  057%=      5-min Rain = 0
KBY1 121202Z 09001KT M08/M15 A3025 RMK A01 T10831154  RH  057%=      5-min Rain = 0
KBY1 121203Z 08002KT M08/M15 A3025 RMK A01 T10841153  RH  057%=      5-min Rain = 0
KBY1 121204Z 08002KT M09/M15 A3025 RMK A01 T10851152  RH  059%=      5-min Rain = 0
KBY1 121205Z 08002KT M09/M15 A3025 RMK A01 T10861150  RH  060%=      5-min Rain = 0
KBY1 121206Z 07003KT M09/M15 A3025 RMK A01 T10861150  RH  060%=      5-min Rain = 0
KBY1 121207Z 08002KT M09/M15 A3025 RMK A01 T10871150  RH  060%=      5-min Rain = 0
KBY1 121208Z 08002KT M09/M15 A3025 RMK A01 T10871151  RH  060%=      5-min Rain = 0
KBY1 121209Z 08002KT M09/M15 A3025 RMK A01 T10871152  RH  059%=      5-min Rain = 0
KBY1 121210Z 08001KT M09/M15 A3025 RMK A01 T10871152  RH  059%=      5-min Rain = 0
KBY1 121211Z 09001KT M09/M15 A3026 RMK A01 T10861151  RH  059%=      5-min Rain = 0
KBY1 121212Z 09001KT M09/M15 A3026 RMK A01 T10851150  RH  059%=      5-min Rain = 0
KBY1 121213Z 09000KT M08/M15 A3026 RMK A01 T10841149  RH  059%=      5-min Rain = 0
KBY1 121214Z 09001KT M08/M15 A3026 RMK A01 T10821148  RH  059%=      5-min Rain = 0
KBY1 121215Z 09001KT M08/M15 A3026 RMK A01 T10801148  RH  058%=      5-min Rain = 0
KBY1 121216Z 08001KT M08/M15 A3026 RMK A01 T10791148  RH  058%=      5-min Rain = 0
KBY1 121217Z 08001KT M08/M15 A3026 RMK A01 T10781148  RH  057%=      5-min Rain = 0
KBY1 121218Z 08001KT M08/M15 A3026 RMK A01 T10781149  RH  057%=      5-min Rain = 0
KBY1 121219Z 08000KT M08/M15 A3026 RMK A01 T10771149  RH  056%=      5-min Rain = 0
KBY1 121220Z 08001KT M08/M15 A3026 RMK A01 T10771150  RH  056%=      5-min Rain = 0
KBY1 121221Z 07002KT M08/M15 A3026 RMK A01 T10771150  RH  056%=      5-min Rain = 0
KBY1 121222Z 07002KT M08/M15 A3026 RMK A01 T10771149  RH  056%=      5-min Rain = 0
KBY1 121223Z 08002KT M08/M15 A3026 RMK A01 T10771149  RH  056%=      5-min Rain = 0
KBY1 121224Z 08002KT M08/M15 A3026 RMK A01 T10771149  RH  056%=      5-min Rain = 0
KBY1 121225Z 07002KT M08/M15 A3026 RMK A01 T10771150  RH  056%=      5-min Rain = 0
KBY1 121226Z 07003KT M08/M15 A3026 RMK A01 T10781151  RH  056%=      5-min Rain = 0
KBY1 121227Z 08003KT M08/M15 A3026 RMK A01 T10791152  RH  056%=      5-min Rain = 0
KBY1 121228Z 07003KT M08/M15 A3026 RMK A01 T10811154  RH  056%=      5-min Rain = 0
KBY1 121229Z 09003KT M08/M16 A3026 RMK A01 T10821155  RH  056%=      5-min Rain = 0
KBY1 121230Z 09003KT M08/M15 A3026 RMK A01 T10831154  RH  056%=      5-min Rain = 0
KBY1 121231Z 08002KT M08/M15 A3026 RMK A01 T10841154  RH  057%=      5-min Rain = 0
KBY1 121232Z 08002KT M08/M15 A3026 RMK A01 T10841153  RH  057%=      5-min Rain = 0
KBY1 121233Z 08003KT M08/M15 A3026 RMK A01 T10841152  RH  058%=      5-min Rain = 0
KBY1 121234Z 08003KT M08/M15 A3026 RMK A01 T10841152  RH  058%=      5-min Rain = 0
KBY1 121235Z 08003KT M08/M15 A3026 RMK A01 T10841152  RH  058%=      5-min Rain = 0
KBY1 121236Z 08003KT M08/M15 A3026 RMK A01 T10841151  RH  058%=      5-min Rain = 0
KBY1 121237Z 08003KT M08/M15 A3026 RMK A01 T10831151  RH  058%=      5-min Rain = 0
KBY1 121238Z 07003KT M08/M15 A3026 RMK A01 T10821150  RH  058%=      5-min Rain = 0
KBY1 121239Z 07002KT M08/M15 A3026 RMK A01 T10821151  RH  058%=      5-min Rain = 0
KBY1 121240Z 09002KT M08/M15 A3027 RMK A01 T10821151  RH  058%=      5-min Rain = 0
KBY1 121241Z 10002KT M08/M15 A3027 RMK A01 T10821151  RH  058%=      5-min Rain = 0
KBY1 121242Z 10002KT M08/M15 A3027 RMK A01 T10821151  RH  058%=      5-min Rain = 0
KBY1 121243Z 11001KT M08/M15 A3027 RMK A01 T10831151  RH  058%=      5-min Rain = 0
KBY1 121244Z 11001KT M08/M15 A3027 RMK A01 T10831151  RH  058%=      5-min Rain = 0
KBY1 121245Z 11001KT M08/M15 A3027 RMK A01 T10841152  RH  058%=      5-min Rain = 0
KBY1 121246Z 11001KT M08/M15 A3026 RMK A01 T10841152  RH  058%=      5-min Rain = 0
KBY1 121247Z 09001KT M08/M15 A3026 RMK A01 T10841152  RH  058%=      5-min Rain = 0
KBY1 121248Z 10001KT M08/M15 A3026 RMK A01 T10841152  RH  058%=      5-min Rain = 0
KBY1 121249Z 11001KT M09/M15 A3026 RMK A01 T10851151  RH  059%=      5-min Rain = 0
KBY1 121250Z 10002KT M09/M15 A3026 RMK A01 T10851151  RH  059%=      5-min Rain = 0
KBY1 121251Z 10002KT M09/M15 A3026 RMK A01 T10851151  RH  059%=      5-min Rain = 0
KBY1 121252Z 09002KT M09/M15 A3026 RMK A01 T10851150  RH  059%=      5-min Rain = 0
KBY1 121253Z 09002KT M09/M15 A3026 RMK A01 T10851150  RH  059%=      5-min Rain = 0
KBY1 121254Z 09002KT M09/M15 A3026 RMK A01 T10851151  RH  059%=      5-min Rain = 0
KBY1 121255Z 08002KT M09/M15 A3026 RMK A01 T10851151  RH  059%=      5-min Rain = 0
KBY1 121256Z 07002KT M09/M15 A3026 RMK A01 T10851151  RH  059%=      5-min Rain = 0
KBY1 121257Z 07002KT M09/M15 A3026 RMK A01 T10851151  RH  059%=      5-min Rain = 0
KBY1 121258Z 06001KT M09/M15 A3026 RMK A01 T10861152  RH  059%=      5-min Rain = 0
KBY1 121259Z 05001KT M09/M15 A3026 RMK A01 T10861152  RH  059%=      5-min Rain = 0
KBY1 121300Z 06001KT M09/M15 A3027 RMK A01 T10861151  RH  059%=      5-min Rain = 0
KBY1 121301Z 06001KT M09/M15 A3027 RMK A01 T10871151  RH  060%=      5-min Rain = 0
KBY1 121302Z 05001KT M09/M15 A3027 RMK A01 T10861150  RH  060%=      5-min Rain = 0
KBY1 121303Z 02000KT M09/M15 A3027 RMK A01 T10861150  RH  060%=      5-min Rain = 0
KBY1 121304Z 03001KT M09/M15 A3027 RMK A01 T10851149  RH  060%=      5-min Rain = 0
KBY1 121305Z 03001KT M09/M15 A3027 RMK A01 T10851148  RH  060%=      5-min Rain = 0
KBY1 121306Z 02001KT M09/M15 A3027 RMK A01 T10851149  RH  060%=      5-min Rain = 0
KBY1 121307Z 05002KT M08/M15 A3027 RMK A01 T10841149  RH  059%=      5-min Rain = 0
KBY1 121308Z 06003KT M08/M15 A3027 RMK A01 T10841149  RH  059%=      5-min Rain = 0
KBY1 121309Z 06003KT M08/M15 A3027 RMK A01 T10841149  RH  059%=      5-min Rain = 0
KBY1 121310Z 07003KT M08/M15 A3027 RMK A01 T10841149  RH  059%=      5-min Rain = 0
KBY1 121311Z 07003KT M08/M15 A3027 RMK A01 T10831149  RH  059%=      5-min Rain = 0
KBY1 121312Z 07003KT M08/M15 A3027 RMK A01 T10831150  RH  059%=      5-min Rain = 0
KBY1 121313Z 06003KT M08/M15 A3027 RMK A01 T10831149  RH  059%=      5-min Rain = 0
KBY1 121314Z 07002KT M08/M15 A3027 RMK A01 T10831149  RH  059%=      5-min Rain = 0
KBY1 121315Z 07002KT M08/M15 A3027 RMK A01 T10821148  RH  059%=      5-min Rain = 0
KBY1 121316Z 07001KT M08/M15 A3027 RMK A01 T10821148  RH  059%=      5-min Rain = 0
KBY1 121317Z 07001KT M08/M15 A3027 RMK A01 T10821147  RH  059%=      5-min Rain = 0
KBY1 121318Z 07001KT M08/M15 A3027 RMK A01 T10821146  RH  060%=      5-min Rain = 0
KBY1 121319Z 07001KT M08/M15 A3027 RMK A01 T10831146  RH  060%=      5-min Rain = 0
KBY1 121320Z 07000KT M08/M15 A3027 RMK A01 T10831147  RH  060%=      5-min Rain = 0
KBY1 121321Z 00000KT M08/M15 A3027 RMK A01 T10841148  RH  060%=      5-min Rain = 0
KBY1 121322Z 00000KT M08/M15 A3027 RMK A01 T10841148  RH  060%=      5-min Rain = 0
KBY1 121323Z 00000KT M08/M15 A3027 RMK A01 T10841149  RH  060%=      5-min Rain = 0
KBY1 121324Z 00000KT M08/M15 A3027 RMK A01 T10841149  RH  060%=      5-min Rain = 0
KBY1 121325Z 00000KT M09/M15 A3027 RMK A01 T10851149  RH  060%=      5-min Rain = 0
KBY1 121326Z 00000KT M09/M15 A3027 RMK A01 T10851150  RH  060%=      5-min Rain = 0
KBY1 121327Z 00000KT M09/M15 A3027 RMK A01 T10851149  RH  060%=      5-min Rain = 0
KBY1 121328Z 00000KT M09/M15 A3027 RMK A01 T10851149  RH  060%=      5-min Rain = 0
KBY1 121329Z 23000KT M09/M15 A3027 RMK A01 T10861149  RH  060%=      5-min Rain = 0
KBY1 121330Z 22000KT M09/M15 A3027 RMK A01 T10861149  RH  060%=      5-min Rain = 0
KBY1 121331Z 00000KT M09/M15 A3027 RMK A01 T10861148  RH  060%=      5-min Rain = 0
KBY1 121332Z 00000KT M09/M15 A3027 RMK A01 T10851148  RH  060%=      5-min Rain = 0
KBY1 121333Z 00000KT M09/M15 A3027 RMK A01 T10861148  RH  060%=      5-min Rain = 0
KBY1 121334Z 00000KT M09/M15 A3027 RMK A01 T10861149  RH  060%=      5-min Rain = 0
KBY1 121335Z 00000KT M09/M15 A3027 RMK A01 T10851148  RH  060%=      5-min Rain = 0
KBY1 121336Z 00000KT M08/M15 A3027 RMK A01 T10841148  RH  060%=      5-min Rain = 0
KBY1 121337Z 00000KT M08/M15 A3028 RMK A01 T10841148  RH  060%=      5-min Rain = 0
KBY1 121338Z 00000KT M08/M15 A3028 RMK A01 T10841147  RH  060%=      5-min Rain = 0
KBY1 121339Z 00000KT M08/M15 A3028 RMK A01 T10831147  RH  060%=      5-min Rain = 0
KBY1 121340Z 00000KT M08/M15 A3028 RMK A01 T10831147  RH  060%=      5-min Rain = 0
KBY1 121341Z 00000KT M08/M15 A3028 RMK A01 T10831147  RH  060%=      5-min Rain = 0
KBY1 121342Z 00000KT M08/M15 A3028 RMK A01 T10821147  RH  060%=      5-min Rain = 0
KBY1 121343Z 00000KT M08/M15 A3028 RMK A01 T10821147  RH  060%=      5-min Rain = 0
KBY1 121344Z 00000KT M08/M15 A3028 RMK A01 T10821147  RH  059%=      5-min Rain = 0
KBY1 121345Z 00000KT M08/M15 A3028 RMK A01 T10821147  RH  059%=      5-min Rain = 0
KBY1 121346Z 00000KT M08/M15 A3028 RMK A01 T10821147  RH  059%=      5-min Rain = 0
KBY1 121347Z 00000KT M08/M15 A3028 RMK A01 T10811147  RH  059%=      5-min Rain = 0
KBY1 121348Z 36001KT M08/M15 A3028 RMK A01 T10801146  RH  059%=      5-min Rain = 0
KBY1 121349Z 01001KT M08/M15 A3028 RMK A01 T10791145  RH  059%=      5-min Rain = 0
KBY1 121350Z 03001KT M08/M15 A3028 RMK A01 T10781145  RH  059%=      5-min Rain = 0
KBY1 121351Z 05002KT M08/M14 A3028 RMK A01 T10771144  RH  058%=      5-min Rain = 0
KBY1 121352Z 06002KT M08/M15 A3028 RMK A01 T10771146  RH  058%=      5-min Rain = 0
KBY1 121353Z 07002KT M08/M15 A3028 RMK A01 T10781148  RH  057%=      5-min Rain = 0
KBY1 121354Z 09003KT M08/M15 A3028 RMK A01 T10801149  RH  058%=      5-min Rain = 0
KBY1 121355Z 10003KT M08/M15 A3028 RMK A01 T10821150  RH  058%=      5-min Rain = 0
KBY1 121356Z 11002KT M08/M15 A3029 RMK A01 T10831150  RH  059%=      5-min Rain = 0
KBY1 121357Z 14001KT M08/M15 A3029 RMK A01 T10841150  RH  059%=      5-min Rain = 0
KBY1 121358Z 18001KT M09/M15 A3029 RMK A01 T10861151  RH  059%=      5-min Rain = 0
KBY1 121359Z 20001KT M09/M15 A3029 RMK A01 T10871152  RH  060%=      5-min Rain = 0
KBY1 121400Z 20001KT M09/M15 A3029 RMK A01 T10881150  RH  061%=      5-min Rain = 0
KBY1 121401Z 21001KT M09/M15 A3029 RMK A01 T10871148  RH  061%=      5-min Rain = 0
KBY1 121402Z 19001KT M09/M15 A3029 RMK A01 T10861147  RH  061%=      5-min Rain = 0
KBY1 121403Z 16001KT M09/M15 A3029 RMK A01 T10851147  RH  061%=      5-min Rain = 0
KBY1 121404Z 15001KT M09/M15 A3029 RMK A01 T10851147  RH  061%=      5-min Rain = 0
KBY1 121405Z 14001KT M09/M15 A3029 RMK A01 T10851147  RH  061%=      5-min Rain = 0
KBY1 121406Z 12000KT M08/M15 A3029 RMK A01 T10841147  RH  061%=      5-min Rain = 0
KBY1 121407Z 14000KT M08/M15 A3029 RMK A01 T10841146  RH  061%=      5-min Rain = 0
KBY1 121408Z 14001KT M08/M15 A3029 RMK A01 T10831146  RH  061%=      5-min Rain = 0
KBY1 121409Z 13001KT M08/M15 A3029 RMK A01 T10831145  RH  061%=      5-min Rain = 0
KBY1 121410Z 10001KT M08/M15 A3029 RMK A01 T10821145  RH  060%=      5-min Rain = 0
KBY1 121411Z 12001KT M08/M14 A3029 RMK A01 T10811144  RH  060%=      5-min Rain = 0
KBY1 121412Z 14001KT M08/M14 A3029 RMK A01 T10801143  RH  060%=      5-min Rain = 0
KBY1 121413Z 09000KT M08/M14 A303 RMK A01 T10791142  RH  060%=      5-min Rain = 0
KBY1 121414Z 10001KT M08/M14 A303 RMK A01 T10781142  RH  060%=      5-min Rain = 0
KBY1 121415Z 10000KT M08/M14 A303 RMK A01 T10771141  RH  060%=      5-min Rain = 0
KBY1 121416Z 00000KT M08/M14 A303 RMK A01 T10761140  RH  060%=      5-min Rain = 0
KBY1 121417Z 00000KT M08/M14 A303 RMK A01 T10761140  RH  060%=      5-min Rain = 0
KBY1 121418Z 09001KT M07/M14 A303 RMK A01 T10741139  RH  060%=      5-min Rain = 0
KBY1 121419Z 07000KT M07/M14 A303 RMK A01 T10731139  RH  060%=      5-min Rain = 0
KBY1 121420Z 12000KT M07/M14 A303 RMK A01 T10731139  RH  059%=      5-min Rain = 0
KBY1 121421Z 09001KT M07/M14 A303 RMK A01 T10721139  RH  059%=      5-min Rain = 0
KBY1 121422Z 09001KT M07/M14 A303 RMK A01 T10711138  RH  059%=      5-min Rain = 0
KBY1 121423Z 10002KT M07/M14 A303 RMK A01 T10701138  RH  058%=      5-min Rain = 0
KBY1 121424Z 09002KT M07/M14 A303 RMK A01 T10701138  RH  058%=      5-min Rain = 0
KBY1 121425Z 10002KT M07/M14 A303 RMK A01 T10691138  RH  058%=      5-min Rain = 0
KBY1 121426Z 10001KT M07/M14 A303 RMK A01 T10681137  RH  058%=      5-min Rain = 0
KBY1 121427Z 09001KT M07/M14 A303 RMK A01 T10671137  RH  057%=      5-min Rain = 0
KBY1 121428Z 10000KT M07/M14 A303 RMK A01 T10661137  RH  057%=      5-min Rain = 0
KBY1 121429Z 10001KT M07/M14 A303 RMK A01 T10651137  RH  057%=      5-min Rain = 0
KBY1 121430Z 10001KT M06/M14 A303 RMK A01 T10641136  RH  056%=      5-min Rain = 0
KBY1 121431Z 08001KT M06/M14 A3031 RMK A01 T10631137  RH  056%=      5-min Rain = 0
KBY1 121432Z 11000KT M06/M14 A3031 RMK A01 T10631137  RH  056%=      5-min Rain = 0
KBY1 121433Z 11001KT M06/M14 A3031 RMK A01 T10621137  RH  056%=      5-min Rain = 0
KBY1 121434Z 12001KT M06/M14 A3031 RMK A01 T10621136  RH  056%=      5-min Rain = 0
KBY1 121435Z 09001KT M06/M14 A3031 RMK A01 T10611136  RH  055%=      5-min Rain = 0
KBY1 121436Z 10002KT M06/M14 A3031 RMK A01 T10611136  RH  055%=      5-min Rain = 0
KBY1 121437Z 09002KT M06/M14 A3031 RMK A01 T10601136  RH  055%=      5-min Rain = 0
KBY1 121438Z 09002KT M06/M14 A303 RMK A01 T10601136  RH  055%=      5-min Rain = 0
KBY1 121439Z 10002KT M06/M14 A303 RMK A01 T10601135  RH  055%=      5-min Rain = 0
KBY1 121440Z 10002KT M06/M13 A3031 RMK A01 T10591134  RH  055%=      5-min Rain = 0
KBY1 121441Z 09003KT M06/M14 A3031 RMK A01 T10591135  RH  055%=      5-min Rain = 0
KBY1 121442Z 09003KT M06/M14 A3031 RMK A01 T10591135  RH  055%=      5-min Rain = 0
KBY1 121443Z 10003KT M06/M14 A3031 RMK A01 T10591135  RH  055%=      5-min Rain = 0
KBY1 121444Z 10002KT M06/M13 A3031 RMK A01 T10591134  RH  055%=      5-min Rain = 0
KBY1 121445Z 11003KT M06/M13 A3031 RMK A01 T10581134  RH  055%=      5-min Rain = 0
KBY1 121446Z 10003KT M06/M13 A3031 RMK A01 T10581133  RH  055%=      5-min Rain = 0
KBY1 121447Z 11002KT M06/M13 A3031 RMK A01 T10571133  RH  055%=      5-min Rain = 0
KBY1 121448Z 11002KT M06/M13 A3031 RMK A01 T10561132  RH  055%=      5-min Rain = 0
KBY1 121449Z 12002KT M06/M13 A3031 RMK A01 T10561132  RH  055%=      5-min Rain = 0
KBY1 121450Z 12001KT M06/M13 A3031 RMK A01 T10551132  RH  055%=      5-min Rain = 0
KBY1 121451Z 10002KT M05/M13 A3031 RMK A01 T10541131  RH  055%=      5-min Rain = 0
KBY1 121452Z 12002KT M05/M13 A3031 RMK A01 T10531130  RH  055%=      5-min Rain = 0
KBY1 121453Z 11003KT M05/M13 A3031 RMK A01 T10521130  RH  054%=      5-min Rain = 0
KBY1 121454Z 10002KT M05/M13 A3031 RMK A01 T10511130  RH  054%=      5-min Rain = 0
KBY1 121455Z 11003KT M05/M13 A3031 RMK A01 T10501130  RH  053%=      5-min Rain = 0
KBY1 121456Z 13003KT M05/M13 A3032 RMK A01 T10491129  RH  053%=      5-min Rain = 0
KBY1 121457Z 11003KT M05/M13 A3032 RMK A01 T10491129  RH  053%=      5-min Rain = 0
KBY1 121458Z 11003KT M05/M13 A3032 RMK A01 T10481129  RH  053%=      5-min Rain = 0
KBY1 121459Z 11004KT M05/M13 A3032 RMK A01 T10471129  RH  053%=      5-min Rain = 0
KBY1 121500Z 11004KT M05/M13 A3032 RMK A01 T10471129  RH  053%=      5-min Rain = 0
KBY1 121501Z 10004KT M05/M13 A3032 RMK A01 T10461128  RH  053%=      5-min Rain = 0
KBY1 121502Z 11004KT M05/M13 A3032 RMK A01 T10451128  RH  053%=      5-min Rain = 0
KBY1 121503Z 10003KT M04/M13 A3032 RMK A01 T10431127  RH  052%=      5-min Rain = 0
KBY1 121504Z 11004KT M04/M13 A3032 RMK A01 T10421126  RH  052%=      5-min Rain = 0
KBY1 121505Z 11005KT M04/M13 A3032 RMK A01 T10401127  RH  051%=      5-min Rain = 0
KBY1 121506Z 12005KT M04/M13 A3032 RMK A01 T10401128  RH  051%=      5-min Rain = 0
KBY1 121507Z 11004KT M04/M13 A3032 RMK A01 T10401128  RH  050%=      5-min Rain = 0
KBY1 121508Z 11005KT M04/M13 A3032 RMK A01 T10391127  RH  050%=      5-min Rain = 0
KBY1 121509Z 11005KT M04/M13 A3032 RMK A01 T10381128  RH  050%=      5-min Rain = 0
KBY1 121510Z 10004KT M04/M13 A3032 RMK A01 T10381128  RH  050%=      5-min Rain = 0
KBY1 121511Z 09005KT M04/M13 A3032 RMK A01 T10371128  RH  049%=      5-min Rain = 0
KBY1 121512Z 09005KT M04/M13 A3032 RMK A01 T10371129  RH  049%=      5-min Rain = 0
KBY1 121513Z 08004KT M04/M13 A3032 RMK A01 T10361129  RH  049%=      5-min Rain = 0
KBY1 121514Z 08004KT M04/M13 A3032 RMK A01 T10361129  RH  049%=      5-min Rain = 0
KBY1 121515Z 09004KT M04/M13 A3032 RMK A01 T10361128  RH  049%=      5-min Rain = 0
KBY1 121516Z 09004KT M04/M13 A3032 RMK A01 T10361129  RH  049%=      5-min Rain = 0
KBY1 121517Z 09004KT M04/M13 A3032 RMK A01 T10361129  RH  049%=      5-min Rain = 0
KBY1 121518Z 08004KT M04/M13 A3032 RMK A01 T10361128  RH  049%=      5-min Rain = 0
KBY1 121519Z 09004KT M04/M13 A3032 RMK A01 T10351128  RH  049%=      5-min Rain = 0
KBY1 121520Z 10004KT M04/M13 A3032 RMK A01 T10351129  RH  048%=      5-min Rain = 0
KBY1 121521Z 10004KT M04/M13 A3032 RMK A01 T10351129  RH  048%=      5-min Rain = 0
KBY1 121522Z 09004KT M04/M13 A3032 RMK A01 T10351128  RH  048%=      5-min Rain = 0
KBY1 121523Z 09004KT M03/M13 A3032 RMK A01 T10341128  RH  048%=      5-min Rain = 0
KBY1 121524Z 08004KT M04/M13 A3032 RMK A01 T10351128  RH  048%=      5-min Rain = 0
KBY1 121525Z 08004KT M04/M13 A3032 RMK A01 T10351128  RH  048%=      5-min Rain = 0
KBY1 121526Z 09005KT M03/M13 A3032 RMK A01 T10341128  RH  048%=      5-min Rain = 0
KBY1 121527Z 09005KT M03/M13 A3032 RMK A01 T10341128  RH  048%=      5-min Rain = 0
KBY1 121528Z 09004KT M03/M13 A3032 RMK A01 T10341127  RH  049%=      5-min Rain = 0
KBY1 121529Z 10004KT M03/M13 A3032 RMK A01 T10331127  RH  048%=      5-min Rain = 0
KBY1 121530Z 08004KT M03/M13 A3032 RMK A01 T10331127  RH  048%=      5-min Rain = 0
KBY1 121531Z 10004KT M03/M13 A3032 RMK A01 T10331127  RH  048%=      5-min Rain = 0
KBY1 121532Z 10004KT M03/M13 A3032 RMK A01 T10331127  RH  048%=      5-min Rain = 0
KBY1 121533Z 10004KT M03/M13 A3032 RMK A01 T10321127  RH  048%=      5-min Rain = 0
KBY1 121534Z 09004KT M03/M13 A3032 RMK A01 T10331128  RH  048%=      5-min Rain = 0
KBY1 121535Z 09004KT M03/M13 A3032 RMK A01 T10321127  RH  048%=      5-min Rain = 0
KBY1 121536Z 10005KT M03/M13 A3032 RMK A01 T10321126  RH  048%=      5-min Rain = 0
KBY1 121537Z 09004KT M03/M13 A3032 RMK A01 T10311127  RH  048%=      5-min Rain = 0
KBY1 121538Z 10003KT M03/M13 A3032 RMK A01 T10321127  RH  048%=      5-min Rain = 0
KBY1 121539Z 10004KT M03/M13 A3032 RMK A01 T10321127  RH  048%=      5-min Rain = 0
KBY1 121540Z 10004KT M03/M13 A3032 RMK A01 T10311126  RH  048%=      5-min Rain = 0
KBY1 121541Z 10004KT M03/M13 A3032 RMK A01 T10311126  RH  048%=      5-min Rain = 0
KBY1 121542Z 09004KT M03/M13 A3032 RMK A01 T10311127  RH  048%=      5-min Rain = 0
KBY1 121543Z 10004KT M03/M13 A3032 RMK A01 T10311126  RH  048%=      5-min Rain = 0
KBY1 121544Z 09004KT M03/M13 A3032 RMK A01 T10311126  RH  048%=      5-min Rain = 0
KBY1 121545Z 10003KT M03/M13 A3032 RMK A01 T10311126  RH  048%=      5-min Rain = 0
KBY1 121546Z 10004KT M03/M13 A3032 RMK A01 T10311126  RH  048%=      5-min Rain = 0
KBY1 121547Z 11004KT M03/M13 A3032 RMK A01 T10301125  RH  048%=      5-min Rain = 0
KBY1 121548Z 10004KT M03/M12 A3032 RMK A01 T10291124  RH  048%=      5-min Rain = 0
KBY1 121549Z 10004KT M03/M13 A3032 RMK A01 T10281125  RH  047%=      5-min Rain = 0
KBY1 121550Z 10004KT M03/M12 A3032 RMK A01 T10271123  RH  047%=      5-min Rain = 0
KBY1 121551Z 10004KT M03/M12 A3032 RMK A01 T10261123  RH  047%=      5-min Rain = 0
KBY1 121552Z 09004KT M03/M12 A3032 RMK A01 T10261124  RH  047%=      5-min Rain = 0
KBY1 121553Z 08005KT M02/M12 A3032 RMK A01 T10241122  RH  047%=      5-min Rain = 0
KBY1 121554Z 08005KT M02/M12 A3032 RMK A01 T10241122  RH  047%=      5-min Rain = 0
KBY1 121555Z 09004KT M02/M12 A3032 RMK A01 T10231123  RH  046%=      5-min Rain = 0
KBY1 121556Z 10005KT M02/M12 A3032 RMK A01 T10231123  RH  046%=      5-min Rain = 0
KBY1 121557Z 09005KT M02/M12 A3032 RMK A01 T10231123  RH  046%=      5-min Rain = 0
KBY1 121558Z 09005KT M02/M12 A3032 RMK A01 T10231123  RH  046%=      5-min Rain = 0
KBY1 121559Z 09005KT M02/M12 A3032 RMK A01 T10221122  RH  046%=      5-min Rain = 0
KBY1 121600Z 09005KT M02/M12 A3032 RMK A01 T10211122  RH  046%=      5-min Rain = 0
KBY1 121601Z 08005KT M02/M12 A3032 RMK A01 T10181120  RH  046%=      5-min Rain = 0
KBY1 121602Z 09005KT M02/M12 A3032 RMK A01 T10171121  RH  045%=      5-min Rain = 0
KBY1 121603Z 09005KT M02/M12 A3032 RMK A01 T10181122  RH  045%=      5-min Rain = 0
KBY1 121604Z 09004KT M02/M12 A3032 RMK A01 T10191123  RH  045%=      5-min Rain = 0
KBY1 121605Z 09004KT M02/M12 A3032 RMK A01 T10191122  RH  045%=      5-min Rain = 0
KBY1 121606Z 08004KT M02/M12 A3032 RMK A01 T10171121  RH  045%=      5-min Rain = 0
KBY1 121607Z 07004KT M02/M12 A3031 RMK A01 T10171121  RH  045%=      5-min Rain = 0
KBY1 121608Z 08005KT M02/M12 A3031 RMK A01 T10171121  RH  045%=      5-min Rain = 0
KBY1 121609Z 07005KT M02/M12 A3031 RMK A01 T10161121  RH  045%=      5-min Rain = 0
KBY1 121610Z 07005KT M01/M12 A3031 RMK A01 T10141119  RH  045%=      5-min Rain = 0
KBY1 121611Z 08005KT M01/M12 A3031 RMK A01 T10121118  RH  044%=      5-min Rain = 0
KBY1 121612Z 10005KT M01/M12 A3031 RMK A01 T10111118  RH  044%=      5-min Rain = 0
KBY1 121613Z 11006KT M01/M12 A3031 RMK A01 T10101119  RH  043%=      5-min Rain = 0
KBY1 121614Z 11006KT M01/M12 A3031 RMK A01 T10101120  RH  043%=      5-min Rain = 0
KBY1 121615Z 10006KT M01/M12 A3031 RMK A01 T10091119  RH  043%=      5-min Rain = 0
KBY1 121616Z 10006KT M01/M12 A3031 RMK A01 T10081119  RH  043%=      5-min Rain = 0
KBY1 121617Z 09006KT M00/M11 A3031 RMK A01 T10021114  RH  042%=      5-min Rain = 0
KBY1 121618Z 08006KT 00/M11 A3031 RMK A01 T00021114  RH  041%=      5-min Rain = 0
KBY1 121619Z 08006KT 01/M11 A3031 RMK A01 T00061112  RH  041%=      5-min Rain = 0
KBY1 121620Z 09006KT 01/M12 A3031 RMK A01 T00061116  RH  040%=      5-min Rain = 0
KBY1 121621Z 09005KT 00/M12 A3031 RMK A01 T00041117  RH  040%=      5-min Rain = 0
KBY1 121622Z 08006KT 01/M12 A3031 RMK A01 T00051115  RH  040%=      5-min Rain = 0
KBY1 121623Z 10006KT 01/M11 A303 RMK A01 T00091114  RH  039%=      5-min Rain = 0
KBY1 121624Z 11006KT 01/M11 A303 RMK A01 T00121113  RH  039%=      5-min Rain = 0
KBY1 121625Z 13008KT 02/M11 A303 RMK A01 T00181111  RH  038%=      5-min Rain = 0
KBY1 121626Z 12008KT 02/M11 A303 RMK A01 T00211114  RH  036%=      5-min Rain = 0
KBY1 121627Z 11008KT 02/M12 A303 RMK A01 T00221115  RH  035%=      5-min Rain = 0
KBY1 121628Z 12008KT 02/M12 A303 RMK A01 T00241116  RH  035%=      5-min Rain = 0
KBY1 121629Z 12010KT 03/M12 A303 RMK A01 T00251117  RH  034%=      5-min Rain = 0
KBY1 121630Z 13009KT 03/M12 A303 RMK A01 T00251119  RH  034%=      5-min Rain = 0
KBY1 121631Z 14008KT 02/M12 A303 RMK A01 T00221121  RH  034%=      5-min Rain = 0
KBY1 121632Z 14006KT 02/M12 A303 RMK A01 T00221119  RH  034%=      5-min Rain = 0
KBY1 121633Z 15007KT 03/M12 A303 RMK A01 T00251116  RH  035%=      5-min Rain = 0
KBY1 121634Z 15008KT 03/M12 A303 RMK A01 T00281115  RH  034%=      5-min Rain = 0
KBY1 121635Z 13007KT 03/M12 A303 RMK A01 T00291117  RH  033%=      5-min Rain = 0
KBY1 121636Z 13006KT 03/M12 A303 RMK A01 T00281117  RH  034%=      5-min Rain = 0
KBY1 121637Z 13007KT 03/M12 A303 RMK A01 T00281117  RH  033%=      5-min Rain = 0
KBY1 121638Z 13007KT 03/M12 A303 RMK A01 T00261118  RH  034%=      5-min Rain = 0
KBY1 121639Z 14008KT 02/M12 A303 RMK A01 T00231120  RH  034%=      5-min Rain = 0
KBY1 121640Z 12009KT 02/M12 A303 RMK A01 T00191121  RH  035%=      5-min Rain = 0
KBY1 121641Z 12009KT 02/M12 A303 RMK A01 T00201118  RH  035%=      5-min Rain = 0
KBY1 121642Z 12007KT 02/M12 A303 RMK A01 T00231117  RH  035%=      5-min Rain = 0
KBY1 121643Z 14008KT 03/M12 A303 RMK A01 T00251117  RH  034%=      5-min Rain = 0
KBY1 121644Z 12008KT 03/M12 A303 RMK A01 T00291115  RH  034%=      5-min Rain = 0
KBY1 121645Z 14006KT 03/M12 A303 RMK A01 T00311115  RH  033%=      5-min Rain = 0
KBY1 121646Z 15008KT 04/M11 A303 RMK A01 T00351114  RH  033%=      5-min Rain = 0
KBY1 121647Z 14005KT 04/M12 A303 RMK A01 T00371117  RH  032%=      5-min Rain = 0
KBY1 121648Z 17006G11KT 04/M12 A303 RMK A01 T00371116  RH  032%=      5-min Rain = 0
KBY1 121649Z 17011KT 04/M12 A303 RMK A01 T00411116  RH  031%=      5-min Rain = 0
KBY1 121650Z 14012G17KT 04/M12 A303 RMK A01 T00421122  RH  029%=      5-min Rain = 0
KBY1 121651Z 15014KT 04/M13 A303 RMK A01 T00391127  RH  029%=      5-min Rain = 0
KBY1 121652Z 16011KT 04/M13 A303 RMK A01 T00351128  RH  029%=      5-min Rain = 0
KBY1 121653Z 17011KT 03/M13 A303 RMK A01 T00311128  RH  030%=      5-min Rain = 0
KBY1 121654Z 17014KT 03/M13 A303 RMK A01 T00291129  RH  030%=      5-min Rain = 0
KBY1 121655Z 18011KT 03/M13 A3029 RMK A01 T00271130  RH  030%=      5-min Rain = 0
KBY1 121656Z 15012KT 03/M13 A3029 RMK A01 T00261130  RH  031%=      5-min Rain = 0
KBY1 121657Z 15012KT 03/M13 A3029 RMK A01 T00281128  RH  031%=      5-min Rain = 0
KBY1 121658Z 15009KT 03/M13 A3029 RMK A01 T00291128  RH  031%=      5-min Rain = 0
KBY1 121659Z 16008KT 03/M13 A3029 RMK A01 T00311127  RH  030%=      5-min Rain = 0
KBY1 121700Z 17009KT 04/M12 A3029 RMK A01 T00351124  RH  030%=      5-min Rain = 0
KBY1 121701Z 16011KT 04/M13 A3029 RMK A01 T00371125  RH  029%=      5-min Rain = 0
KBY1 121702Z 16013KT 04/M13 A3029 RMK A01 T00381127  RH  029%=      5-min Rain = 0
KBY1 121703Z 16010KT 04/M13 A3029 RMK A01 T00401125  RH  029%=      5-min Rain = 0
KBY1 121704Z 16012KT 04/M13 A3029 RMK A01 T00421125  RH  028%=      5-min Rain = 0
KBY1 121705Z 16012KT 04/M13 A3029 RMK A01 T00421128  RH  028%=      5-min Rain = 0
KBY1 121706Z 17011KT 04/M13 A3029 RMK A01 T00391129  RH  028%=      5-min Rain = 0
KBY1 121707Z 16011KT 04/M13 A3029 RMK A01 T00381129  RH  028%=      5-min Rain = 0
KBY1 121708Z 18008KT 03/M13 A3029 RMK A01 T00341131  RH  029%=      5-min Rain = 0
KBY1 121709Z 18009KT 03/M13 A3029 RMK A01 T00331129  RH  029%=      5-min Rain = 0
KBY1 121710Z 17009KT 03/M13 A3029 RMK A01 T00331128  RH  030%=      5-min Rain = 0
KBY1 121711Z 15009KT 03/M13 A3029 RMK A01 T00341127  RH  030%=      5-min Rain = 0
KBY1 121712Z 15013KT 03/M13 A3029 RMK A01 T00341128  RH  029%=      5-min Rain = 0
KBY1 121713Z 15011KT 03/M13 A3029 RMK A01 T00331131  RH  029%=      5-min Rain = 0
KBY1 121714Z 16010KT 03/M13 A3029 RMK A01 T00311132  RH  029%=      5-min Rain = 0
KBY1 121715Z 15008KT 03/M13 A3029 RMK A01 T00301132  RH  029%=      5-min Rain = 0
KBY1 121716Z 15008KT 03/M13 A3029 RMK A01 T00311130  RH  029%=      5-min Rain = 0
KBY1 121717Z 15008KT 04/M13 A3029 RMK A01 T00351127  RH  029%=      5-min Rain = 0
KBY1 121718Z 15008KT 04/M13 A3029 RMK A01 T00401126  RH  029%=      5-min Rain = 0
KBY1 121719Z 18010KT 05/M13 A3029 RMK A01 T00461128  RH  027%=      5-min Rain = 0
KBY1 121720Z 19007KT 05/M13 A3029 RMK A01 T00471132  RH  026%=      5-min Rain = 0
KBY1 121721Z 16010KT 05/M13 A3029 RMK A01 T00511128  RH  026%=      5-min Rain = 0
KBY1 121722Z 15010KT 05/M13 A3029 RMK A01 T00541130  RH  025%=      5-min Rain = 0
KBY1 121723Z 15012KT 05/M13 A3029 RMK A01 T00531134  RH  025%=      5-min Rain = 0
KBY1 121724Z 15013KT 05/M14 A3029 RMK A01 T00521136  RH  024%=      5-min Rain = 0
KBY1 121725Z 16012KT 05/M14 A3029 RMK A01 T00521136  RH  024%=      5-min Rain = 0
KBY1 121726Z 16012KT 05/M14 A3028 RMK A01 T00511138  RH  024%=      5-min Rain = 0
KBY1 121727Z 16012KT 05/M14 A3028 RMK A01 T00511140  RH  024%=      5-min Rain = 0
KBY1 121728Z 16013KT 05/M14 A3028 RMK A01 T00531140  RH  023%=      5-min Rain = 0
KBY1 121729Z 17013KT 05/M14 A3028 RMK A01 T00521141  RH  023%=      5-min Rain = 0
KBY1 121730Z 16014KT 05/M14 A3029 RMK A01 T00501142  RH  023%=      5-min Rain = 0
KBY1 121731Z 18011KT 05/M14 A3029 RMK A01 T00491142  RH  024%=      5-min Rain = 0
KBY1 121732Z 18012G17KT 05/M14 A3029 RMK A01 T00521137  RH  024%=      5-min Rain = 0
KBY1 121733Z 16010KT 05/M14 A3029 RMK A01 T00531139  RH  024%=      5-min Rain = 0
KBY1 121734Z 17012KT 05/M14 A3028 RMK A01 T00511139  RH  024%=      5-min Rain = 0
KBY1 121735Z 17013KT 05/M14 A3028 RMK A01 T00511137  RH  024%=      5-min Rain = 0
KBY1 121736Z 16009KT 05/M14 A3028 RMK A01 T00511136  RH  024%=      5-min Rain = 0
KBY1 121737Z 16008KT 05/M14 A3028 RMK A01 T00521135  RH  024%=      5-min Rain = 0
KBY1 121738Z 15009KT 05/M14 A3028 RMK A01 T00531136  RH  024%=      5-min Rain = 0
KBY1 121739Z 14008KT 05/M14 A3028 RMK A01 T00511138  RH  024%=      5-min Rain = 0
KBY1 121740Z 14005KT 05/M14 A3028 RMK A01 T00521135  RH  025%=      5-min Rain = 0
KBY1 121741Z 15007KT 06/M13 A3028 RMK A01 T00581130  RH  025%=      5-min Rain = 0
KBY1 121742Z 16011KT 06/M13 A3028 RMK A01 T00601134  RH  023%=      5-min Rain = 0
KBY1 121743Z 15011G16KT 06/M15 A3028 RMK A01 T00581146  RH  021%=      5-min Rain = 0
KBY1 121744Z 15010KT 06/M15 A3028 RMK A01 T00551153  RH  021%=      5-min Rain = 0
KBY1 121745Z 16013G18KT 05/M15 A3028 RMK A01 T00531153  RH  021%=      5-min Rain = 0
KBY1 121746Z 16016KT 05/M15 A3028 RMK A01 T00521150  RH  022%=      5-min Rain = 0
KBY1 121747Z 15012KT 05/M15 A3028 RMK A01 T00511147  RH  022%=      5-min Rain = 0
KBY1 121748Z 16009KT 05/M15 A3028 RMK A01 T00511148  RH  022%=      5-min Rain = 0
KBY1 121749Z 16009KT 05/M15 A3028 RMK A01 T00511150  RH  022%=      5-min Rain = 0
KBY1 121750Z 16010KT 05/M15 A3028 RMK A01 T00511149  RH  022%=      5-min Rain = 0
KBY1 121751Z 15013KT 05/M16 A3028 RMK A01 T00511155  RH  021%=      5-min Rain = 0
KBY1 121752Z 16013KT 05/M16 A3028 RMK A01 T00511159  RH  020%=      5-min Rain = 0
KBY1 121753Z 16014KT 05/M16 A3028 RMK A01 T00511159  RH  020%=      5-min Rain = 0
KBY1 121754Z 16012KT 05/M16 A3028 RMK A01 T00521156  RH  021%=      5-min Rain = 0
KBY1 121755Z 17011KT 06/M15 A3028 RMK A01 T00571152  RH  020%=      5-min Rain = 0
KBY1 121756Z 14013KT 06/M15 A3028 RMK A01 T00591151  RH  020%=      5-min Rain = 0
KBY1 121757Z 15016KT 06/M15 A3028 RMK A01 T00611151  RH  020%=      5-min Rain = 0
KBY1 121758Z 16013KT 06/M16 A3028 RMK A01 T00601155  RH  020%=      5-min Rain = 0
KBY1 121759Z 16013KT 06/M15 A3028 RMK A01 T00601154  RH  020%=      5-min Rain = 0
KBY1 121800Z 16013KT 06/M15 A3028 RMK A01 T00611153  RH  020%=      5-min Rain = 0
KBY1 121801Z 15011KT 06/M15 A3027 RMK A01 T00611153  RH  020%=      5-min Rain = 0
KBY1 121802Z 14009KT 06/M15 A3027 RMK A01 T00611153  RH  020%=      5-min Rain = 0
KBY1 121803Z 17012KT 06/M15 A3027 RMK A01 T00631152  RH  020%=      5-min Rain = 0
KBY1 121804Z 18014KT 06/M15 A3027 RMK A01 T00631152  RH  020%=      5-min Rain = 0
KBY1 121805Z 19013KT 06/M15 A3027 RMK A01 T00631151  RH  020%=      5-min Rain = 0
KBY1 121806Z 16011KT 06/M15 A3027 RMK A01 T00641151  RH  020%=      5-min Rain = 0
KBY1 121807Z 15012G17KT 07/M15 A3027 RMK A01 T00651150  RH  020%=      5-min Rain = 0
KBY1 121808Z 17013KT 07/M15 A3027 RMK A01 T00651151  RH  020%=      5-min Rain = 0
KBY1 121809Z 18013KT 07/M15 A3027 RMK A01 T00651150  RH  020%=      5-min Rain = 0
KBY1 121810Z 19011KT 06/M15 A3027 RMK A01 T00641149  RH  020%=      5-min Rain = 0
KBY1 121811Z 19009KT 06/M15 A3027 RMK A01 T00631149  RH  020%=      5-min Rain = 0
KBY1 121812Z 19012KT 06/M15 A3027 RMK A01 T00631148  RH  020%=      5-min Rain = 0
KBY1 121813Z 17010KT 06/M15 A3027 RMK A01 T00641148  RH  020%=      5-min Rain = 0
KBY1 121814Z 16011KT 06/M15 A3027 RMK A01 T00621149  RH  020%=      5-min Rain = 0
KBY1 121815Z 16010KT 06/M15 A3026 RMK A01 T00601148  RH  021%=      5-min Rain = 0
KBY1 121816Z 15011G16KT 07/M14 A3026 RMK A01 T00651142  RH  021%=      5-min Rain = 0
KBY1 121817Z 15016KT 07/M14 A3026 RMK A01 T00681144  RH  020%=      5-min Rain = 0
KBY1 121818Z 14013G18KT 07/M15 A3026 RMK A01 T00661146  RH  020%=      5-min Rain = 0
KBY1 121819Z 15013KT 06/M15 A3026 RMK A01 T00641147  RH  020%=      5-min Rain = 0
KBY1 121820Z 15010KT 06/M15 A3026 RMK A01 T00641147  RH  021%=      5-min Rain = 0
KBY1 121821Z 16010KT 06/M15 A3026 RMK A01 T00641145  RH  021%=      5-min Rain = 0
KBY1 121822Z 15011KT 07/M14 A3026 RMK A01 T00661144  RH  021%=      5-min Rain = 0
KBY1 121823Z 14013KT 07/M15 A3026 RMK A01 T00661145  RH  021%=      5-min Rain = 0
KBY1 121824Z 15008KT 07/M15 A3026 RMK A01 T00671145  RH  020%=      5-min Rain = 0
KBY1 121825Z 16007G13KT 07/M14 A3025 RMK A01 T00701142  RH  020%=      5-min Rain = 0
KBY1 121826Z 16013KT 07/M14 A3025 RMK A01 T00741141  RH  020%=      5-min Rain = 0
KBY1 121827Z 15014KT 07/M15 A3025 RMK A01 T00741145  RH  019%=      5-min Rain = 0
KBY1 121828Z 14015KT 07/M15 A3025 RMK A01 T00731147  RH  019%=      5-min Rain = 0
KBY1 121829Z 15015KT 07/M15 A3025 RMK A01 T00721147  RH  019%=      5-min Rain = 0
KBY1 121830Z 17014KT 07/M15 A3025 RMK A01 T00721146  RH  020%=      5-min Rain = 0
KBY1 121831Z 17015KT 07/M15 A3025 RMK A01 T00721146  RH  019%=      5-min Rain = 0
KBY1 121832Z 18012KT 07/M15 A3025 RMK A01 T00691147  RH  020%=      5-min Rain = 0
KBY1 121833Z 17012KT 07/M14 A3024 RMK A01 T00711144  RH  020%=      5-min Rain = 0
KBY1 121834Z 15012KT 07/M15 A3024 RMK A01 T00721145  RH  020%=      5-min Rain = 0
KBY1 121835Z 14013KT 07/M15 A3024 RMK A01 T00711146  RH  020%=      5-min Rain = 0
KBY1 121836Z 15012KT 07/M15 A3024 RMK A01 T00711147  RH  019%=      5-min Rain = 0
KBY1 121837Z 15011G17KT 07/M15 A3024 RMK A01 T00701150  RH  019%=      5-min Rain = 0
KBY1 121838Z 15013KT 07/M15 A3024 RMK A01 T00711149  RH  019%=      5-min Rain = 0
KBY1 121839Z 16012KT 07/M15 A3023 RMK A01 T00721147  RH  019%=      5-min Rain = 0
KBY1 121840Z 16011KT 07/M15 A3023 RMK A01 T00731147  RH  019%=      5-min Rain = 0
KBY1 121841Z 17012KT 08/M15 A3023 RMK A01 T00751148  RH  019%=      5-min Rain = 0
KBY1 121842Z 17014KT 08/M16 A3023 RMK A01 T00761155  RH  018%=      5-min Rain = 0
KBY1 121843Z 17013KT 08/M16 A3023 RMK A01 T00751156  RH  018%=      5-min Rain = 0
KBY1 121844Z 15014KT 08/M16 A3023 RMK A01 T00751156  RH  018%=      5-min Rain = 0
KBY1 121845Z 15015KT 08/M16 A3023 RMK A01 T00751155  RH  018%=      5-min Rain = 0
KBY1 121846Z 14013KT 08/M16 A3023 RMK A01 T00761155  RH  018%=      5-min Rain = 0
KBY1 121847Z 15013KT 08/M15 A3023 RMK A01 T00771154  RH  018%=      5-min Rain = 0
KBY1 121848Z 16013KT 08/M15 A3023 RMK A01 T00791153  RH  018%=      5-min Rain = 0
KBY1 121849Z 17010KT 08/M16 A3023 RMK A01 T00771156  RH  017%=      5-min Rain = 0
KBY1 121850Z 15007KT 08/M15 A3023 RMK A01 T00771153  RH  018%=      5-min Rain = 0
KBY1 121851Z 18009KT 08/M15 A3023 RMK A01 T00811150  RH  018%=      5-min Rain = 0
KBY1 121852Z 16011G16KT 08/M15 A3023 RMK A01 T00841150  RH  017%=      5-min Rain = 0
KBY1 121853Z 14015KT 09/M15 A3023 RMK A01 T00851152  RH  017%=      5-min Rain = 0
KBY1 121854Z 14012G17KT 08/M16 A3023 RMK A01 T00801157  RH  017%=      5-min Rain = 0
KBY1 121855Z 14012KT 08/M16 A3023 RMK A01 T00791156  RH  017%=      5-min Rain = 0
KBY1 121856Z 15013KT 08/M16 A3023 RMK A01 T00781156  RH  017%=      5-min Rain = 0
KBY1 121857Z 14014KT 08/M15 A3023 RMK A01 T00771153  RH  018%=      5-min Rain = 0
KBY1 121858Z 14011KT 08/M16 A3023 RMK A01 T00761155  RH  018%=      5-min Rain = 0
KBY1 121859Z 16009KT 08/M15 A3023 RMK A01 T00761154  RH  018%=      5-min Rain = 0
KBY1 121900Z 17012G17KT 08/M15 A3023 RMK A01 T00801151  RH  018%=      5-min Rain = 0
KBY1 121901Z 17013KT 08/M15 A3023 RMK A01 T00841152  RH  017%=      5-min Rain = 0
KBY1 121902Z 16013KT 08/M16 A3023 RMK A01 T00821156  RH  017%=      5-min Rain = 0
KBY1 121903Z 16011KT 08/M16 A3023 RMK A01 T00781158  RH  017%=      5-min Rain = 0
KBY1 121904Z 16012KT 08/M15 A3022 RMK A01 T00801154  RH  017%=      5-min Rain = 0
KBY1 121905Z 15013KT 08/M16 A3022 RMK A01 T00821155  RH  017%=      5-min Rain = 0
KBY1 121906Z 15015KT 08/M16 A3022 RMK A01 T00821155  RH  017%=      5-min Rain = 0
KBY1 121907Z 16014KT 08/M16 A3022 RMK A01 T00791156  RH  017%=      5-min Rain = 0
KBY1 121908Z 17016KT 08/M15 A3022 RMK A01 T00791154  RH  017%=      5-min Rain = 0
KBY1 121909Z 17011KT 08/M15 A3022 RMK A01 T00801153  RH  017%=      5-min Rain = 0
KBY1 121910Z 16010KT 08/M15 A3022 RMK A01 T00821151  RH  017%=      5-min Rain = 0
KBY1 121911Z 16016KT 08/M15 A3022 RMK A01 T00821152  RH  017%=      5-min Rain = 0
KBY1 121912Z 17011KT 08/M16 A3022 RMK A01 T00791155  RH  017%=      5-min Rain = 0
KBY1 121913Z 15008KT 08/M16 A3022 RMK A01 T00771155  RH  017%=      5-min Rain = 0
KBY1 121914Z 16010KT 08/M15 A3022 RMK A01 T00781152  RH  018%=      5-min Rain = 0
KBY1 121915Z 15009KT 08/M15 A3022 RMK A01 T00791152  RH  018%=      5-min Rain = 0
KBY1 121916Z 15010KT 08/M15 A3022 RMK A01 T00791151  RH  018%=      5-min Rain = 0
KBY1 121917Z 16012KT 08/M15 A3022 RMK A01 T00801151  RH  018%=      5-min Rain = 0
KBY1 121918Z 16010KT 08/M15 A3022 RMK A01 T00821151  RH  017%=      5-min Rain = 0
KBY1 121919Z 15008KT 08/M15 A3022 RMK A01 T00831151  RH  017%=      5-min Rain = 0
KBY1 121920Z 15006G12KT 09/M15 A3022 RMK A01 T00861150  RH  017%=      5-min Rain = 0
KBY1 121921Z 15010KT 09/M15 A3022 RMK A01 T00861151  RH  017%=      5-min Rain = 0
KBY1 121922Z 18014KT 09/M15 A3022 RMK A01 T00861152  RH  017%=      5-min Rain = 0
KBY1 121923Z 17012KT 09/M15 A3022 RMK A01 T00851152  RH  017%=      5-min Rain = 0
KBY1 121924Z 17011KT 09/M15 A3022 RMK A01 T00861150  RH  017%=      5-min Rain = 0
KBY1 121925Z 18009KT 09/M15 A3022 RMK A01 T00891151  RH  017%=      5-min Rain = 0
KBY1 121926Z 19009KT 09/M15 A3022 RMK A01 T00901152  RH  016%=      5-min Rain = 0
KBY1 121927Z 16012G17KT 09/M15 A3022 RMK A01 T00921151  RH  016%=      5-min Rain = 0
KBY1 121928Z 17013KT 09/M16 A3021 RMK A01 T00891155  RH  016%=      5-min Rain = 0
KBY1 121929Z 18011KT 09/M16 A3021 RMK A01 T00851156  RH  016%=      5-min Rain = 0
KBY1 121930Z 19013KT 09/M15 A3021 RMK A01 T00851153  RH  017%=      5-min Rain = 0
KBY1 121931Z 19008KT 09/M16 A3021 RMK A01 T00861155  RH  016%=      5-min Rain = 0
KBY1 121932Z 16011KT 09/M15 A3021 RMK A01 T00861154  RH  017%=      5-min Rain = 0
KBY1 121933Z 16010KT 09/M15 A3021 RMK A01 T00871154  RH  016%=      5-min Rain = 0
KBY1 121934Z 17009KT 09/M15 A3021 RMK A01 T00881154  RH  016%=      5-min Rain = 0
KBY1 121935Z 16009KT 09/M16 A3021 RMK A01 T00851157  RH  016%=      5-min Rain = 0
KBY1 121936Z 15015G21KT 08/M16 A3021 RMK A01 T00841155  RH  017%=      5-min Rain = 0
KBY1 121937Z 16013KT 09/M15 A3021 RMK A01 T00871153  RH  017%=      5-min Rain = 0
KBY1 121938Z 16014KT 09/M15 A3021 RMK A01 T00911151  RH  016%=      5-min Rain = 0
KBY1 121939Z 15010KT 09/M15 A3021 RMK A01 T00901154  RH  016%=      5-min Rain = 0
KBY1 121940Z 17009KT 09/M16 A302 RMK A01 T00881155  RH  016%=      5-min Rain = 0
KBY1 121941Z 18012KT 09/M15 A302 RMK A01 T00871154  RH  017%=      5-min Rain = 0
KBY1 121942Z 19012KT 09/M16 A302 RMK A01 T00861155  RH  016%=      5-min Rain = 0
KBY1 121943Z 18011KT 09/M16 A302 RMK A01 T00851155  RH  016%=      5-min Rain = 0
KBY1 121944Z 18015KT 09/M16 A302 RMK A01 T00851155  RH  017%=      5-min Rain = 0
KBY1 121945Z 17015KT 09/M16 A302 RMK A01 T00851155  RH  017%=      5-min Rain = 0
KBY1 121946Z 16012KT 09/M16 A302 RMK A01 T00851155  RH  017%=      5-min Rain = 0
KBY1 121947Z 14011G16KT 09/M15 A302 RMK A01 T00901150  RH  017%=      5-min Rain = 0
KBY1 121948Z 16009KT 09/M15 A302 RMK A01 T00931152  RH  016%=      5-min Rain = 0
KBY1 121949Z 15013KT 09/M15 A302 RMK A01 T00921154  RH  016%=      5-min Rain = 0
KBY1 121950Z 17016KT 09/M16 A302 RMK A01 T00901155  RH  016%=      5-min Rain = 0
KBY1 121951Z 19013KT 09/M16 A302 RMK A01 T00861156  RH  016%=      5-min Rain = 0
KBY1 121952Z 19011KT 08/M15 A302 RMK A01 T00841154  RH  017%=      5-min Rain = 0
KBY1 121953Z 17008KT 09/M15 A302 RMK A01 T00861152  RH  017%=      5-min Rain = 0
KBY1 121954Z 16011KT 09/M15 A302 RMK A01 T00891150  RH  017%=      5-min Rain = 0
KBY1 121955Z 15010KT 09/M15 A302 RMK A01 T00901153  RH  016%=      5-min Rain = 0
KBY1 121956Z 15011KT 09/M15 A302 RMK A01 T00891153  RH  016%=      5-min Rain = 0
KBY1 121957Z 16007KT 09/M16 A3019 RMK A01 T00891155  RH  016%=      5-min Rain = 0
KBY1 121958Z 15009G14KT 09/M16 A3019 RMK A01 T00861155  RH  016%=      5-min Rain = 0
KBY1 121959Z 16012KT 09/M15 A3019 RMK A01 T00871154  RH  016%=      5-min Rain = 0
KBY1 122000Z 17015KT 09/M15 A3019 RMK A01 T00871154  RH  016%=      5-min Rain = 0
KBY1 122001Z 18013KT 09/M15 A3019 RMK A01 T00861153  RH  017%=      5-min Rain = 0
KBY1 122002Z 19011KT 09/M15 A3019 RMK A01 T00851153  RH  017%=      5-min Rain = 0
KBY1 122003Z 17011KT 08/M15 A3019 RMK A01 T00841152  RH  017%=      5-min Rain = 0
KBY1 122004Z 17012KT 09/M15 A3019 RMK A01 T00851151  RH  017%=      5-min Rain = 0
KBY1 122005Z 16012KT 09/M15 A3019 RMK A01 T00861150  RH  017%=      5-min Rain = 0
KBY1 122006Z 16009KT 09/M15 A3019 RMK A01 T00871151  RH  017%=      5-min Rain = 0
KBY1 122007Z 16012KT 09/M15 A3019 RMK A01 T00861151  RH  017%=      5-min Rain = 0
KBY1 122008Z 15011KT 09/M15 A3019 RMK A01 T00871151  RH  017%=      5-min Rain = 0
KBY1 122009Z 15011KT 09/M15 A3019 RMK A01 T00871154  RH  017%=      5-min Rain = 0
KBY1 122010Z 16010KT 09/M16 A3019 RMK A01 T00851155  RH  017%=      5-min Rain = 0
KBY1 122011Z 15009KT 08/M15 A3019 RMK A01 T00841154  RH  017%=      5-min Rain = 0
KBY1 122012Z 14012KT 09/M15 A3019 RMK A01 T00861152  RH  017%=      5-min Rain = 0
KBY1 122013Z 16014KT 09/M15 A3019 RMK A01 T00861152  RH  017%=      5-min Rain = 0
KBY1 122014Z 16014KT 09/M15 A3019 RMK A01 T00881149  RH  017%=      5-min Rain = 0
KBY1 122015Z 17014KT 09/M15 A3019 RMK A01 T00871149  RH  017%=      5-min Rain = 0
KBY1 122016Z 18011KT 09/M15 A3019 RMK A01 T00861149  RH  017%=      5-min Rain = 0
KBY1 122017Z 17010KT 09/M15 A3019 RMK A01 T00861148  RH  017%=      5-min Rain = 0
KBY1 122018Z 15013KT 09/M15 A3018 RMK A01 T00881147  RH  017%=      5-min Rain = 0
KBY1 122019Z 15012KT 09/M15 A3018 RMK A01 T00891148  RH  017%=      5-min Rain = 0
KBY1 122020Z 16015KT 09/M15 A3018 RMK A01 T00891147  RH  017%=      5-min Rain = 0
KBY1 122021Z 17013G19KT 09/M15 A3018 RMK A01 T00891147  RH  017%=      5-min Rain = 0
KBY1 122022Z 17011KT 09/M15 A3018 RMK A01 T00881147  RH  017%=      5-min Rain = 0
KBY1 122023Z 17011KT 09/M15 A3018 RMK A01 T00881145  RH  018%=      5-min Rain = 0
KBY1 122024Z 17012KT 09/M15 A3018 RMK A01 T00901145  RH  017%=      5-min Rain = 0
KBY1 122025Z 17013KT 09/M15 A3017 RMK A01 T00891146  RH  017%=      5-min Rain = 0
KBY1 122026Z 17012KT 09/M14 A3018 RMK A01 T00891144  RH  018%=      5-min Rain = 0
KBY1 122027Z 17010G16KT 09/M14 A3018 RMK A01 T00911143  RH  018%=      5-min Rain = 0
KBY1 122028Z 16014KT 09/M14 A3018 RMK A01 T00921144  RH  017%=      5-min Rain = 0
KBY1 122029Z 16012G17KT 09/M15 A3017 RMK A01 T00901145  RH  017%=      5-min Rain = 0
KBY1 122030Z 16015KT 09/M14 A3018 RMK A01 T00901143  RH  018%=      5-min Rain = 0
KBY1 122031Z 17012KT 09/M14 A3017 RMK A01 T00911142  RH  018%=      5-min Rain = 0
KBY1 122032Z 17009KT 09/M14 A3017 RMK A01 T00911141  RH  018%=      5-min Rain = 0
KBY1 122033Z 18010KT 09/M14 A3017 RMK A01 T00931141  RH  018%=      5-min Rain = 0
KBY1 122034Z 15013G20KT 09/M14 A3017 RMK A01 T00931142  RH  017%=      5-min Rain = 0
KBY1 122035Z 15014KT 09/M14 A3017 RMK A01 T00931142  RH  018%=      5-min Rain = 0
KBY1 122036Z 16014KT 09/M14 A3017 RMK A01 T00931142  RH  017%=      5-min Rain = 0
KBY1 122037Z 18012KT 09/M14 A3017 RMK A01 T00931141  RH  018%=      5-min Rain = 0
KBY1 122038Z 18013KT 10/M14 A3017 RMK A01 T00951140  RH  017%=      5-min Rain = 0
KBY1 122039Z 17011KT 10/M14 A3017 RMK A01 T00981139  RH  017%=      5-min Rain = 0
KBY1 122040Z 15012KT 10/M14 A3017 RMK A01 T01011138  RH  017%=      5-min Rain = 0
KBY1 122041Z 15014KT 10/M14 A3017 RMK A01 T01011141  RH  017%=      5-min Rain = 0
KBY1 122042Z 16013KT 10/M15 A3017 RMK A01 T00971145  RH  017%=      5-min Rain = 0
KBY1 122043Z 15008G13KT 09/M15 A3017 RMK A01 T00921146  RH  017%=      5-min Rain = 0
KBY1 122044Z 18007KT 09/M14 A3017 RMK A01 T00921143  RH  017%=      5-min Rain = 0
KBY1 122045Z 18011G17KT 09/M14 A3017 RMK A01 T00941142  RH  017%=      5-min Rain = 0
KBY1 122046Z 17013KT 09/M14 A3017 RMK A01 T00941142  RH  017%=      5-min Rain = 0
KBY1 122047Z 17012KT 09/M15 A3017 RMK A01 T00911145  RH  017%=      5-min Rain = 0
KBY1 122048Z 18010KT 09/M14 A3017 RMK A01 T00901143  RH  018%=      5-min Rain = 0
KBY1 122049Z 17017KT 09/M14 A3017 RMK A01 T00901142  RH  018%=      5-min Rain = 0
KBY1 122050Z 17015KT 09/M14 A3017 RMK A01 T00891143  RH  018%=      5-min Rain = 0
KBY1 122051Z 17016KT 09/M14 A3017 RMK A01 T00891143  RH  018%=      5-min Rain = 0
KBY1 122052Z 18013KT 09/M14 A3016 RMK A01 T00891144  RH  018%=      5-min Rain = 0
KBY1 122053Z 18012KT 09/M14 A3016 RMK A01 T00891143  RH  018%=      5-min Rain = 0
KBY1 122054Z 16011KT 09/M14 A3016 RMK A01 T00901143  RH  018%=      5-min Rain = 0
KBY1 122055Z 18009KT 09/M14 A3016 RMK A01 T00911143  RH  018%=      5-min Rain = 0
KBY1 122056Z 19013KT 09/M14 A3016 RMK A01 T00921141  RH  018%=      5-min Rain = 0
KBY1 122057Z 17010G15KT 09/M14 A3016 RMK A01 T00921143  RH  017%=      5-min Rain = 0
KBY1 122058Z 16008KT 09/M14 A3016 RMK A01 T00921142  RH  018%=      5-min Rain = 0
KBY1 122059Z 17008KT 09/M14 A3016 RMK A01 T00921142  RH  018%=      5-min Rain = 0
KBY1 122100Z 19010KT 09/M14 A3016 RMK A01 T00941142  RH  017%=      5-min Rain = 0
KBY1 122101Z 18012KT 09/M14 A3016 RMK A01 T00931142  RH  017%=      5-min Rain = 0
KBY1 122102Z 19011KT 09/M14 A3016 RMK A01 T00941140  RH  018%=      5-min Rain = 0
KBY1 122103Z 18015G22KT 10/M14 A3016 RMK A01 T00971136  RH  018%=      5-min Rain = 0
KBY1 122104Z 19018G25KT 10/M14 A3016 RMK A01 T00981137  RH  017%=      5-min Rain = 0
KBY1 122105Z 18012KT 10/M14 A3016 RMK A01 T00951140  RH  018%=      5-min Rain = 0
KBY1 122106Z 17012G17KT 10/M14 A3016 RMK A01 T00951138  RH  018%=      5-min Rain = 0
KBY1 122107Z 16011G17KT 10/M13 A3016 RMK A01 T01001134  RH  018%=      5-min Rain = 0
KBY1 122108Z 15016KT 11/M14 A3016 RMK A01 T01051136  RH  017%=      5-min Rain = 0
KBY1 122109Z 14014KT 10/M14 A3016 RMK A01 T01031140  RH  017%=      5-min Rain = 0
KBY1 122110Z 13010KT 10/M14 A3016 RMK A01 T01011140  RH  017%=      5-min Rain = 0
KBY1 122111Z 15011G17KT 10/M14 A3016 RMK A01 T01021136  RH  017%=      5-min Rain = 0
KBY1 122112Z 16019KT 11/M14 A3016 RMK A01 T01051136  RH  017%=      5-min Rain = 0
KBY1 122113Z 16017KT 10/M14 A3016 RMK A01 T01011140  RH  017%=      5-min Rain = 0
KBY1 122114Z 16016KT 10/M14 A3016 RMK A01 T00981139  RH  017%=      5-min Rain = 0
KBY1 122115Z 16016KT 10/M14 A3016 RMK A01 T00981138  RH  017%=      5-min Rain = 0
KBY1 122116Z 17014KT 10/M14 A3015 RMK A01 T00971138  RH  018%=      5-min Rain = 0
KBY1 122117Z 16014KT 10/M14 A3015 RMK A01 T00961138  RH  018%=      5-min Rain = 0
KBY1 122118Z 16014KT 10/M14 A3015 RMK A01 T00961139  RH  018%=      5-min Rain = 0
KBY1 122119Z 17014KT 10/M14 A3015 RMK A01 T00971138  RH  018%=      5-min Rain = 0
KBY1 122120Z 14015KT 10/M14 A3015 RMK A01 T00991137  RH  017%=      5-min Rain = 0
KBY1 122121Z 15012KT 10/M14 A3015 RMK A01 T01001138  RH  017%=      5-min Rain = 0
KBY1 122122Z 16011KT 10/M14 A3015 RMK A01 T00991139  RH  017%=      5-min Rain = 0
KBY1 122123Z 15014G19KT 10/M14 A3015 RMK A01 T01001136  RH  017%=      5-min Rain = 0
KBY1 122124Z 15015KT 10/M14 A3015 RMK A01 T01021136  RH  017%=      5-min Rain = 0
KBY1 122125Z 16011KT 10/M14 A3015 RMK A01 T01021137  RH  017%=      5-min Rain = 0
KBY1 122126Z 16012KT 10/M14 A3015 RMK A01 T01041135  RH  017%=      5-min Rain = 0
KBY1 122127Z 17011G17KT 11/M14 A3015 RMK A01 T01051135  RH  017%=      5-min Rain = 0
KBY1 122128Z 17014KT 11/M13 A3015 RMK A01 T01061134  RH  017%=      5-min Rain = 0
KBY1 122129Z 16010KT 11/M14 A3015 RMK A01 T01051135  RH  017%=      5-min Rain = 0
KBY1 122130Z 17016G21KT 10/M14 A3015 RMK A01 T01041137  RH  017%=      5-min Rain = 0
KBY1 122131Z 16014KT 10/M14 A3015 RMK A01 T01021138  RH  017%=      5-min Rain = 0
KBY1 122132Z 17011KT 10/M14 A3015 RMK A01 T01021138  RH  017%=      5-min Rain = 0
KBY1 122133Z 17013KT 10/M14 A3015 RMK A01 T01021138  RH  017%=      5-min Rain = 0
KBY1 122134Z 17012KT 10/M14 A3014 RMK A01 T01001140  RH  017%=      5-min Rain = 0
KBY1 122135Z 18010KT 10/M14 A3014 RMK A01 T00971140  RH  017%=      5-min Rain = 0
KBY1 122136Z 17010G15KT 10/M14 A3014 RMK A01 T00971139  RH  017%=      5-min Rain = 0
KBY1 122137Z 16015KT 10/M14 A3014 RMK A01 T00981138  RH  018%=      5-min Rain = 0
KBY1 122138Z 15015KT 10/M14 A3014 RMK A01 T00981137  RH  017%=      5-min Rain = 0
KBY1 122139Z 16015KT 10/M14 A3014 RMK A01 T00991137  RH  017%=      5-min Rain = 0
KBY1 122140Z 16013KT 10/M14 A3014 RMK A01 T00991138  RH  017%=      5-min Rain = 0
KBY1 122141Z 16016KT 10/M14 A3014 RMK A01 T00991137  RH  018%=      5-min Rain = 0
KBY1 122142Z 16012G17KT 10/M14 A3014 RMK A01 T00981135  RH  018%=      5-min Rain = 0
KBY1 122143Z 16011KT 10/M13 A3014 RMK A01 T01001134  RH  018%=      5-min Rain = 0
KBY1 122144Z 17011KT 10/M13 A3014 RMK A01 T01021134  RH  018%=      5-min Rain = 0
KBY1 122145Z 16013KT 10/M13 A3014 RMK A01 T01031134  RH  018%=      5-min Rain = 0
KBY1 122146Z 16014KT 10/M13 A3014 RMK A01 T01041133  RH  018%=      5-min Rain = 0
KBY1 122147Z 17014KT 10/M13 A3014 RMK A01 T01031132  RH  018%=      5-min Rain = 0
KBY1 122148Z 18013KT 10/M13 A3014 RMK A01 T01021133  RH  018%=      5-min Rain = 0
KBY1 122149Z 17012KT 10/M13 A3014 RMK A01 T01021132  RH  018%=      5-min Rain = 0
KBY1 122150Z 16010G15KT 10/M13 A3014 RMK A01 T01011133  RH  018%=      5-min Rain = 0
KBY1 122151Z 16010KT 10/M13 A3014 RMK A01 T01011133  RH  018%=      5-min Rain = 0
KBY1 122152Z 16012KT 10/M13 A3014 RMK A01 T01011132  RH  018%=      5-min Rain = 0
KBY1 122153Z 15015G21KT 10/M13 A3014 RMK A01 T01011131  RH  018%=      5-min Rain = 0
KBY1 122154Z 15017KT 10/M13 A3014 RMK A01 T01001132  RH  018%=      5-min Rain = 0
KBY1 122155Z 15014G19KT 10/M13 A3014 RMK A01 T00991133  RH  018%=      5-min Rain = 0
KBY1 122156Z 14013G19KT 10/M13 A3014 RMK A01 T00991133  RH  018%=      5-min Rain = 0
KBY1 122157Z 16012KT 10/M13 A3014 RMK A01 T00991133  RH  018%=      5-min Rain = 0
KBY1 122158Z 16015KT 10/M13 A3014 RMK A01 T01011131  RH  018%=      5-min Rain = 0
KBY1 122159Z 16015KT 10/M13 A3014 RMK A01 T01021130  RH  018%=      5-min Rain = 0
KBY1 122200Z 16015KT 10/M13 A3014 RMK A01 T01021130  RH  018%=      5-min Rain = 0
KBY1 122201Z 16016KT 10/M13 A3014 RMK A01 T01001131  RH  018%=      5-min Rain = 0
KBY1 122202Z 16014KT 10/M13 A3014 RMK A01 T01001131  RH  018%=      5-min Rain = 0
KBY1 122203Z 15013KT 10/M13 A3014 RMK A01 T01011131  RH  018%=      5-min Rain = 0
KBY1 122204Z 14015KT 10/M13 A3014 RMK A01 T01011132  RH  018%=      5-min Rain = 0
KBY1 122205Z 15016KT 10/M13 A3014 RMK A01 T01001133  RH  018%=      5-min Rain = 0
KBY1 122206Z 17011KT 10/M13 A3014 RMK A01 T00991133  RH  018%=      5-min Rain = 0
KBY1 122207Z 17016G21KT 10/M13 A3014 RMK A01 T01001132  RH  018%=      5-min Rain = 0
KBY1 122208Z 16016G22KT 10/M13 A3014 RMK A01 T00991134  RH  018%=      5-min Rain = 0
KBY1 122209Z 16015KT 10/M14 A3014 RMK A01 T00981135  RH  018%=      5-min Rain = 0
KBY1 122210Z 16015KT 10/M14 A3014 RMK A01 T00971135  RH  018%=      5-min Rain = 0
KBY1 122211Z 17017G22KT 10/M14 A3014 RMK A01 T00961136  RH  018%=      5-min Rain = 0
KBY1 122212Z 16016G21KT 10/M14 A3014 RMK A01 T00961135  RH  018%=      5-min Rain = 0
KBY1 122213Z 15015KT 10/M14 A3014 RMK A01 T00971135  RH  018%=      5-min Rain = 0
KBY1 122214Z 16013KT 10/M14 A3014 RMK A01 T00971136  RH  018%=      5-min Rain = 0
KBY1 122215Z 16012KT 10/M14 A3014 RMK A01 T00991135  RH  018%=      5-min Rain = 0
KBY1 122216Z 15010G15KT 10/M14 A3014 RMK A01 T01001135  RH  018%=      5-min Rain = 0
KBY1 122217Z 16013KT 10/M14 A3014 RMK A01 T01011136  RH  017%=      5-min Rain = 0
KBY1 122218Z 16011KT 10/M14 A3014 RMK A01 T00991139  RH  017%=      5-min Rain = 0
KBY1 122219Z 18012KT 10/M14 A3014 RMK A01 T00971139  RH  017%=      5-min Rain = 0
KBY1 122220Z 18012KT 10/M14 A3014 RMK A01 T00981137  RH  017%=      5-min Rain = 0
KBY1 122221Z 17013G18KT 10/M14 A3014 RMK A01 T01001137  RH  017%=      5-min Rain = 0
KBY1 122222Z 16014KT 10/M14 A3014 RMK A01 T01011137  RH  017%=      5-min Rain = 0
KBY1 122223Z 17012KT 10/M14 A3014 RMK A01 T01011138  RH  017%=      5-min Rain = 0
KBY1 122224Z 16015KT 10/M14 A3014 RMK A01 T01001138  RH  017%=      5-min Rain = 0
KBY1 122225Z 15014KT 10/M14 A3014 RMK A01 T01001139  RH  017%=      5-min Rain = 0
KBY1 122226Z 16014KT 10/M14 A3014 RMK A01 T00991139  RH  017%=      5-min Rain = 0
KBY1 122227Z 17015KT 10/M14 A3014 RMK A01 T01001139  RH  017%=      5-min Rain = 0
KBY1 122228Z 17011KT 10/M14 A3014 RMK A01 T01001138  RH  017%=      5-min Rain = 0
KBY1 122229Z 17015KT 10/M14 A3014 RMK A01 T01001139  RH  017%=      5-min Rain = 0
KBY1 122230Z 18013KT 10/M14 A3014 RMK A01 T01001139  RH  017%=      5-min Rain = 0
KBY1 122231Z 17012KT 10/M14 A3014 RMK A01 T00991140  RH  017%=      5-min Rain = 0
KBY1 122232Z 15014KT 10/M14 A3014 RMK A01 T00981141  RH  017%=      5-min Rain = 0
KBY1 122233Z 16011KT 10/M14 A3014 RMK A01 T00971142  RH  017%=      5-min Rain = 0
KBY1 122234Z 17012KT 10/M14 A3014 RMK A01 T00971142  RH  017%=      5-min Rain = 0
KBY1 122235Z 16011KT 10/M14 A3014 RMK A01 T00971142  RH  017%=      5-min Rain = 0
KBY1 122236Z 15014KT 10/M14 A3014 RMK A01 T00971141  RH  017%=      5-min Rain = 0
KBY1 122237Z 17015KT 10/M14 A3014 RMK A01 T00971141  RH  017%=      5-min Rain = 0
KBY1 122238Z 18013KT 10/M14 A3014 RMK A01 T00981139  RH  017%=      5-min Rain = 0
KBY1 122239Z 18014KT 10/M14 A3014 RMK A01 T00991139  RH  017%=      5-min Rain = 0
KBY1 122240Z 16012KT 10/M14 A3014 RMK A01 T00991140  RH  017%=      5-min Rain = 0
KBY1 122241Z 16012KT 10/M14 A3014 RMK A01 T00981140  RH  017%=      5-min Rain = 0
KBY1 122242Z 16014KT 10/M14 A3014 RMK A01 T00981140  RH  017%=      5-min Rain = 0
KBY1 122243Z 17012KT 10/M14 A3014 RMK A01 T00971140  RH  017%=      5-min Rain = 0
KBY1 122244Z 16009KT 10/M14 A3014 RMK A01 T00971140  RH  017%=      5-min Rain = 0
KBY1 122245Z 16014KT 10/M14 A3014 RMK A01 T00971140  RH  017%=      5-min Rain = 0
KBY1 122246Z 16011KT 10/M14 A3014 RMK A01 T00951142  RH  017%=      5-min Rain = 0
KBY1 122247Z 15012KT 10/M14 A3014 RMK A01 T00951141  RH  017%=      5-min Rain = 0
KBY1 122248Z 16011KT 10/M14 A3014 RMK A01 T00951141  RH  017%=      5-min Rain = 0
KBY1 122249Z 16012G17KT 10/M14 A3014 RMK A01 T00951142  RH  017%=      5-min Rain = 0
KBY1 122250Z 16009KT 10/M14 A3014 RMK A01 T00951143  RH  017%=      5-min Rain = 0
KBY1 122251Z 16010KT 10/M14 A3014 RMK A01 T00951144  RH  017%=      5-min Rain = 0
KBY1 122252Z 16011KT 10/M14 A3014 RMK A01 T00951144  RH  017%=      5-min Rain = 0
KBY1 122253Z 15011KT 10/M14 A3014 RMK A01 T00951144  RH  017%=      5-min Rain = 0
KBY1 122254Z 17012KT 10/M14 A3014 RMK A01 T00951144  RH  017%=      5-min Rain = 0
KBY1 122255Z 16013KT 10/M14 A3014 RMK A01 T00951144  RH  017%=      5-min Rain = 0
KBY1 122256Z 16013G18KT 09/M15 A3014 RMK A01 T00941145  RH  017%=      5-min Rain = 0
KBY1 122257Z 15011KT 09/M15 A3014 RMK A01 T00931145  RH  017%=      5-min Rain = 0
KBY1 122258Z 15011KT 09/M15 A3014 RMK A01 T00921145  RH  017%=      5-min Rain = 0
KBY1 122259Z 15011KT 09/M15 A3014 RMK A01 T00921145  RH  017%=      5-min Rain = 0
KBY1 122300Z 16011KT 09/M14 A3014 RMK A01 T00931144  RH  017%=      5-min Rain = 0
KBY1 122301Z 14013KT 09/M14 A3014 RMK A01 T00921144  RH  017%=      5-min Rain = 0
KBY1 122302Z 14014G19KT 09/M14 A3014 RMK A01 T00931143  RH  017%=      5-min Rain = 0
KBY1 122303Z 14015KT 09/M14 A3014 RMK A01 T00921143  RH  017%=      5-min Rain = 0
KBY1 122304Z 14014KT 09/M14 A3014 RMK A01 T00921143  RH  017%=      5-min Rain = 0
KBY1 122305Z 16013KT 09/M14 A3014 RMK A01 T00921143  RH  017%=      5-min Rain = 0
KBY1 122306Z 16014KT 09/M14 A3014 RMK A01 T00921143  RH  017%=      5-min Rain = 0
KBY1 122307Z 16012KT 09/M14 A3014 RMK A01 T00911144  RH  017%=      5-min Rain = 0
KBY1 122308Z 15012KT 09/M14 A3014 RMK A01 T00911144  RH  017%=      5-min Rain = 0
KBY1 122309Z 14010KT 09/M14 A3014 RMK A01 T00911144  RH  017%=      5-min Rain = 0
KBY1 122310Z 15011KT 09/M14 A3014 RMK A01 T00911144  RH  017%=      5-min Rain = 0
KBY1 122311Z 15011KT 09/M15 A3014 RMK A01 T00901145  RH  017%=      5-min Rain = 0
KBY1 122312Z 16012KT 09/M15 A3014 RMK A01 T00901145  RH  017%=      5-min Rain = 0
KBY1 122313Z 14013KT 09/M15 A3014 RMK A01 T00901145  RH  017%=      5-min Rain = 0
KBY1 122314Z 15013KT 09/M15 A3014 RMK A01 T00901145  RH  017%=      5-min Rain = 0
KBY1 122315Z 15010KT 09/M15 A3014 RMK A01 T00901145  RH  017%=      5-min Rain = 0
KBY1 122316Z 14013KT 09/M14 A3014 RMK A01 T00901144  RH  017%=      5-min Rain = 0
KBY1 122317Z 14012KT 09/M15 A3014 RMK A01 T00901145  RH  017%=      5-min Rain = 0
KBY1 122318Z 14010KT 09/M15 A3014 RMK A01 T00891145  RH  017%=      5-min Rain = 0
KBY1 122319Z 13012KT 09/M15 A3014 RMK A01 T00881145  RH  018%=      5-min Rain = 0
KBY1 122320Z 13012KT 09/M15 A3014 RMK A01 T00871145  RH  018%=      5-min Rain = 0
KBY1 122321Z 12012KT 09/M15 A3014 RMK A01 T00861145  RH  018%=      5-min Rain = 0
KBY1 122322Z 12010KT 09/M15 A3014 RMK A01 T00851145  RH  018%=      5-min Rain = 0
KBY1 122323Z 12008KT 08/M15 A3014 RMK A01 T00841145  RH  018%=      5-min Rain = 0
KBY1 122324Z 12008KT 08/M14 A3014 RMK A01 T00841144  RH  018%=      5-min Rain = 0
KBY1 122325Z 12011KT 08/M14 A3014 RMK A01 T00841144  RH  018%=      5-min Rain = 0
KBY1 122326Z 12010KT 08/M14 A3014 RMK A01 T00831144  RH  018%=      5-min Rain = 0
KBY1 122327Z 12009KT 08/M14 A3014 RMK A01 T00831144  RH  018%=      5-min Rain = 0
KBY1 122328Z 13010KT 08/M14 A3014 RMK A01 T00831144  RH  018%=      5-min Rain = 0
KBY1 122329Z 14008KT 08/M14 A3014 RMK A01 T00831144  RH  018%=      5-min Rain = 0
KBY1 122330Z 14010KT 08/M14 A3014 RMK A01 T00821144  RH  018%=      5-min Rain = 0
KBY1 122331Z 14008KT 08/M14 A3014 RMK A01 T00821144  RH  018%=      5-min Rain = 0
KBY1 122332Z 15007KT 08/M14 A3014 RMK A01 T00821143  RH  019%=      5-min Rain = 0
KBY1 122333Z 14010KT 08/M14 A3014 RMK A01 T00831143  RH  019%=      5-min Rain = 0
KBY1 122334Z 14008KT 08/M14 A3014 RMK A01 T00831143  RH  018%=      5-min Rain = 0
KBY1 122335Z 14011KT 08/M14 A3014 RMK A01 T00841143  RH  018%=      5-min Rain = 0
KBY1 122336Z 14012KT 08/M14 A3014 RMK A01 T00841144  RH  018%=      5-min Rain = 0
KBY1 122337Z 15013KT 08/M15 A3014 RMK A01 T00831145  RH  018%=      5-min Rain = 0
KBY1 122338Z 15010KT 08/M15 A3014 RMK A01 T00831146  RH  018%=      5-min Rain = 0
KBY1 122339Z 15010KT 08/M15 A3014 RMK A01 T00831146  RH  018%=      5-min Rain = 0
KBY1 122340Z 14010KT 08/M15 A3014 RMK A01 T00821146  RH  018%=      5-min Rain = 0
KBY1 122341Z 14010KT 08/M15 A3014 RMK A01 T00821145  RH  018%=      5-min Rain = 0
KBY1 122342Z 15010KT 08/M15 A3014 RMK A01 T00821145  RH  018%=      5-min Rain = 0
KBY1 122343Z 15007KT 08/M15 A3015 RMK A01 T00831145  RH  018%=      5-min Rain = 0
KBY1 122344Z 14006KT 08/M15 A3015 RMK A01 T00821145  RH  018%=      5-min Rain = 0
KBY1 122345Z 14009KT 08/M15 A3015 RMK A01 T00811146  RH  018%=      5-min Rain = 0
KBY1 122346Z 15008KT 08/M15 A3015 RMK A01 T00811146  RH  018%=      5-min Rain = 0
KBY1 122347Z 14007KT 08/M15 A3015 RMK A01 T00811146  RH  018%=      5-min Rain = 0
KBY1 122348Z 15011KT 08/M15 A3015 RMK A01 T00801145  RH  019%=      5-min Rain = 0
KBY1 122349Z 15011KT 08/M15 A3015 RMK A01 T00801145  RH  019%=      5-min Rain = 0
KBY1 122350Z 15009KT 08/M15 A3015 RMK A01 T00801145  RH  019%=      5-min Rain = 0
KBY1 122351Z 14009G14KT 08/M15 A3015 RMK A01 T00801145  RH  019%=      5-min Rain = 0
KBY1 122352Z 14011KT 08/M15 A3015 RMK A01 T00801145  RH  019%=      5-min Rain = 0
KBY1 122353Z 14010KT 08/M15 A3015 RMK A01 T00801145  RH  019%=      5-min Rain = 0
KBY1 122354Z 14012KT 08/M15 A3015 RMK A01 T00801145  RH  019%=      5-min Rain = 0
KBY1 122355Z 15009KT 08/M15 A3015 RMK A01 T00801145  RH  019%=      5-min Rain = 0
KBY1 122356Z 14008KT 08/M15 A3015 RMK A01 T00791145  RH  019%=      5-min Rain = 0
KBY1 122357Z 12009KT 08/M15 A3015 RMK A01 T00791145  RH  019%=      5-min Rain = 0
KBY1 122358Z 14010KT 08/M15 A3016 RMK A01 T00781145  RH  019%=      5-min Rain = 0
KBY1 122359Z 12008KT 08/M15 A3016 RMK A01 T00771145  RH  019%=      5-min Rain = 0
KBY1 130000Z 12008KT 08/M15 A3016 RMK A01 T00761146  RH  019%=      5-min Rain = 0
KBY1 130001Z 12007KT 07/M15 A3016 RMK A01 T00741146  RH  019%=      5-min Rain = 0
KBY1 130002Z 12006KT 07/M15 A3016 RMK A01 T00721146  RH  019%=      5-min Rain = 0
KBY1 130003Z 12006KT 07/M15 A3016 RMK A01 T00711146  RH  020%=      5-min Rain = 0
KBY1 130004Z 12008KT 07/M15 A3016 RMK A01 T00701146  RH  020%=      5-min Rain = 0
KBY1 130005Z 12008KT 07/M15 A3016 RMK A01 T00691146  RH  020%=      5-min Rain = 0
KBY1 130006Z 12008KT 07/M15 A3016 RMK A01 T00691145  RH  020%=      5-min Rain = 0
KBY1 130007Z 12009KT 07/M15 A3016 RMK A01 T00691145  RH  020%=      5-min Rain = 0
KBY1 130008Z 12009KT 07/M15 A3016 RMK A01 T00691145  RH  020%=      5-min Rain = 0
KBY1 130009Z 13009KT 07/M15 A3016 RMK A01 T00681145  RH  020%=      5-min Rain = 0
KBY1 130010Z 13010KT 07/M15 A3016 RMK A01 T00681145  RH  020%=      5-min Rain = 0
KBY1 130011Z 12008KT 07/M15 A3016 RMK A01 T00681145  RH  020%=      5-min Rain = 0
KBY1 130012Z 13008KT 07/M15 A3016 RMK A01 T00671145  RH  020%=      5-min Rain = 0
KBY1 130013Z 12011KT 07/M15 A3016 RMK A01 T00661146  RH  020%=      5-min Rain = 0
KBY1 130014Z 13009KT 07/M15 A3016 RMK A01 T00661145  RH  020%=      5-min Rain = 0
KBY1 130015Z 12007KT 07/M15 A3016 RMK A01 T00661145  RH  021%=      5-min Rain = 0
KBY1 130016Z 13007KT 07/M15 A3016 RMK A01 T00651145  RH  021%=      5-min Rain = 0
KBY1 130017Z 12008KT 06/M15 A3016 RMK A01 T00641145  RH  021%=      5-min Rain = 0
KBY1 130018Z 12008KT 06/M15 A3016 RMK A01 T00631145  RH  021%=      5-min Rain = 0
KBY1 130019Z 13007KT 06/M15 A3016 RMK A01 T00621145  RH  021%=      5-min Rain = 0
KBY1 130020Z 12007KT 06/M15 A3016 RMK A01 T00611145  RH  021%=      5-min Rain = 0
KBY1 130021Z 12008KT 06/M15 A3016 RMK A01 T00601145  RH  021%=      5-min Rain = 0
KBY1 130022Z 12007KT 06/M15 A3016 RMK A01 T00591145  RH  021%=      5-min Rain = 0
KBY1 130023Z 12008KT 06/M15 A3016 RMK A01 T00581146  RH  022%=      5-min Rain = 0
KBY1 130024Z 12008KT 06/M15 A3016 RMK A01 T00571145  RH  022%=      5-min Rain = 0
KBY1 130025Z 12009KT 06/M15 A3016 RMK A01 T00571145  RH  022%=      5-min Rain = 0
KBY1 130026Z 12007KT 06/M15 A3017 RMK A01 T00581145  RH  022%=      5-min Rain = 0
KBY1 130027Z 12008KT 06/M15 A3017 RMK A01 T00581145  RH  022%=      5-min Rain = 0
KBY1 130028Z 13008G13KT 06/M15 A3017 RMK A01 T00571145  RH  022%=      5-min Rain = 0
KBY1 130029Z 13007KT 06/M15 A3017 RMK A01 T00571145  RH  022%=      5-min Rain = 0
KBY1 130030Z 13007KT 06/M15 A3017 RMK A01 T00571145  RH  022%=      5-min Rain = 0
KBY1 130031Z 13007KT 06/M15 A3017 RMK A01 T00571145  RH  022%=      5-min Rain = 0
KBY1 130032Z 13007KT 06/M15 A3017 RMK A01 T00571145  RH  022%=      5-min Rain = 0
KBY1 130033Z 12007KT 06/M15 A3017 RMK A01 T00571145  RH  022%=      5-min Rain = 0
KBY1 130034Z 13007KT 06/M15 A3017 RMK A01 T00561145  RH  022%=      5-min Rain = 0
KBY1 130035Z 13008KT 06/M15 A3017 RMK A01 T00561145  RH  022%=      5-min Rain = 0
KBY1 130036Z 13009KT 06/M15 A3017 RMK A01 T00561145  RH  022%=      5-min Rain = 0
KBY1 130037Z 13009KT 06/M15 A3017 RMK A01 T00551145  RH  022%=      5-min Rain = 0
KBY1 130038Z 13010KT 06/M15 A3017 RMK A01 T00551145  RH  022%=      5-min Rain = 0
KBY1 130039Z 13007KT 06/M15 A3017 RMK A01 T00551145  RH  022%=      5-min Rain = 0
KBY1 130040Z 14009KT 06/M15 A3017 RMK A01 T00551145  RH  022%=      5-min Rain = 0
KBY1 130041Z 13008KT 05/M15 A3017 RMK A01 T00541145  RH  022%=      5-min Rain = 0
KBY1 130042Z 13007KT 05/M15 A3017 RMK A01 T00541145  RH  022%=      5-min Rain = 0
KBY1 130043Z 14007KT 05/M15 A3017 RMK A01 T00531145  RH  022%=      5-min Rain = 0
KBY1 130044Z 13008KT 05/M15 A3017 RMK A01 T00531145  RH  022%=      5-min Rain = 0
KBY1 130045Z 13007KT 05/M15 A3017 RMK A01 T00531145  RH  022%=      5-min Rain = 0
KBY1 130046Z 13009KT 05/M15 A3017 RMK A01 T00521145  RH  023%=      5-min Rain = 0
KBY1 130047Z 13009KT 05/M15 A3017 RMK A01 T00521145  RH  023%=      5-min Rain = 0
KBY1 130048Z 13010KT 05/M15 A3017 RMK A01 T00521145  RH  023%=      5-min Rain = 0
KBY1 130049Z 13009KT 05/M15 A3017 RMK A01 T00521145  RH  023%=      5-min Rain = 0
KBY1 130050Z 13008KT 05/M15 A3018 RMK A01 T00521145  RH  023%=      5-min Rain = 0
KBY1 130051Z 14008KT 05/M15 A3018 RMK A01 T00511145  RH  023%=      5-min Rain = 0
KBY1 130052Z 13008KT 05/M14 A3018 RMK A01 T00521144  RH  023%=      5-min Rain = 0
KBY1 130053Z 14010KT 05/M15 A3018 RMK A01 T00511145  RH  023%=      5-min Rain = 0
KBY1 130054Z 13009KT 05/M14 A3018 RMK A01 T00511144  RH  023%=      5-min Rain = 0
KBY1 130055Z 13008KT 05/M15 A3018 RMK A01 T00501145  RH  023%=      5-min Rain = 0
KBY1 130056Z 13007KT 05/M15 A3018 RMK A01 T00501145  RH  023%=      5-min Rain = 0
KBY1 130057Z 13007KT 05/M15 A3018 RMK A01 T00491145  RH  023%=      5-min Rain = 0
KBY1 130058Z 13007KT 05/M15 A3018 RMK A01 T00491145  RH  023%=      5-min Rain = 0
KBY1 130059Z 12006KT 05/M15 A3018 RMK A01 T00491145  RH  023%=      5-min Rain = 0
KBY1 130100Z 12007KT 05/M15 A3018 RMK A01 T00481145  RH  023%=      5-min Rain = 0
KBY1 130101Z 12007KT 05/M15 A3018 RMK A01 T00461146  RH  023%=      5-min Rain = 0
KBY1 130102Z 12007KT 05/M15 A3018 RMK A01 T00461145  RH  023%=      5-min Rain = 0
KBY1 130103Z 12008KT 05/M15 A3018 RMK A01 T00451146  RH  024%=      5-min Rain = 0
KBY1 130104Z 13009KT 05/M15 A3018 RMK A01 T00451145  RH  024%=      5-min Rain = 0
KBY1 130105Z 13008KT 05/M15 A3018 RMK A01 T00451145  RH  024%=      5-min Rain = 0
KBY1 130106Z 13009KT 05/M15 A3018 RMK A01 T00451145  RH  024%=      5-min Rain = 0
KBY1 130107Z 12007KT 05/M15 A3018 RMK A01 T00451145  RH  024%=      5-min Rain = 0
KBY1 130108Z 12009KT 05/M15 A3018 RMK A01 T00451145  RH  024%=      5-min Rain = 0
KBY1 130109Z 12009KT 05/M15 A3018 RMK A01 T00451145  RH  024%=      5-min Rain = 0
KBY1 130110Z 12007KT 04/M15 A3018 RMK A01 T00441145  RH  024%=      5-min Rain = 0
KBY1 130111Z 12007KT 04/M15 A3018 RMK A01 T00441145  RH  024%=      5-min Rain = 0
KBY1 130112Z 11007KT 04/M15 A3018 RMK A01 T00421146  RH  024%=      5-min Rain = 0
KBY1 130113Z 11006KT 04/M15 A3018 RMK A01 T00411146  RH  024%=      5-min Rain = 0
KBY1 130114Z 10008KT 04/M15 A3018 RMK A01 T00391147  RH  024%=      5-min Rain = 0
KBY1 130115Z 11007KT 04/M15 A3018 RMK A01 T00371147  RH  025%=      5-min Rain = 0
KBY1 130116Z 11007KT 04/M15 A3019 RMK A01 T00361146  RH  025%=      5-min Rain = 0
KBY1 130117Z 11007KT 04/M15 A3019 RMK A01 T00351146  RH  025%=      5-min Rain = 0
KBY1 130118Z 11006KT 03/M15 A3019 RMK A01 T00341146  RH  025%=      5-min Rain = 0
KBY1 130119Z 11007KT 03/M15 A3019 RMK A01 T00331146  RH  026%=      5-min Rain = 0
KBY1 130120Z 11006KT 03/M15 A3019 RMK A01 T00321146  RH  026%=      5-min Rain = 0
KBY1 130121Z 10007KT 03/M15 A3019 RMK A01 T00311146  RH  026%=      5-min Rain = 0
KBY1 130122Z 11007KT 03/M15 A3019 RMK A01 T00311145  RH  026%=      5-min Rain = 0
KBY1 130123Z 11007KT 03/M15 A3019 RMK A01 T00311146  RH  026%=      5-min Rain = 0
KBY1 130124Z 11007KT 03/M15 A3019 RMK A01 T00301146  RH  026%=      5-min Rain = 0
KBY1 130125Z 11007KT 03/M15 A3019 RMK A01 T00291146  RH  026%=      5-min Rain = 0
KBY1 130126Z 11007KT 03/M15 A3019 RMK A01 T00281146  RH  026%=      5-min Rain = 0
KBY1 130127Z 11007KT 03/M15 A3019 RMK A01 T00281146  RH  027%=      5-min Rain = 0
KBY1 130128Z 11007KT 03/M15 A3019 RMK A01 T00271146  RH  027%=      5-min Rain = 0
KBY1 130129Z 10007KT 03/M15 A3019 RMK A01 T00261146  RH  027%=      5-min Rain = 0
KBY1 130130Z 10006KT 03/M15 A3019 RMK A01 T00251146  RH  027%=      5-min Rain = 0
KBY1 130131Z 10006KT 03/M15 A3019 RMK A01 T00251146  RH  027%=      5-min Rain = 0
KBY1 130132Z 10007KT 02/M15 A302 RMK A01 T00241146  RH  027%=      5-min Rain = 0
KBY1 130133Z 10007KT 02/M15 A302 RMK A01 T00241146  RH  027%=      5-min Rain = 0
KBY1 130134Z 10007KT 02/M15 A302 RMK A01 T00231146  RH  027%=      5-min Rain = 0
KBY1 130135Z 10007KT 02/M15 A302 RMK A01 T00231146  RH  028%=      5-min Rain = 0
KBY1 130136Z 10007KT 02/M15 A302 RMK A01 T00221146  RH  028%=      5-min Rain = 0
KBY1 130137Z 11007KT 02/M15 A302 RMK A01 T00221146  RH  028%=      5-min Rain = 0
KBY1 130138Z 11007KT 02/M15 A302 RMK A01 T00211146  RH  028%=      5-min Rain = 0
KBY1 130139Z 11007KT 02/M15 A302 RMK A01 T00211146  RH  028%=      5-min Rain = 0
KBY1 130140Z 11006KT 02/M15 A302 RMK A01 T00211146  RH  028%=      5-min Rain = 0
KBY1 130141Z 11007KT 02/M15 A302 RMK A01 T00201146  RH  028%=      5-min Rain = 0
KBY1 130142Z 12007KT 02/M15 A302 RMK A01 T00201146  RH  028%=      5-min Rain = 0
KBY1 130143Z 12005KT 02/M15 A302 RMK A01 T00201146  RH  028%=      5-min Rain = 0
KBY1 130144Z 12006KT 02/M15 A302 RMK A01 T00201146  RH  028%=      5-min Rain = 0
KBY1 130145Z 12005KT 02/M15 A302 RMK A01 T00201146  RH  028%=      5-min Rain = 0
KBY1 130146Z 12005KT 02/M15 A302 RMK A01 T00201146  RH  028%=      5-min Rain = 0
KBY1 130147Z 12005KT 02/M15 A302 RMK A01 T00191146  RH  028%=      5-min Rain = 0
KBY1 130148Z 12005KT 02/M15 A302 RMK A01 T00191147  RH  028%=      5-min Rain = 0
KBY1 130149Z 12004KT 02/M15 A3021 RMK A01 T00181147  RH  028%=      5-min Rain = 0
KBY1 130150Z 12005KT 02/M15 A3021 RMK A01 T00181146  RH  028%=      5-min Rain = 0
KBY1 130151Z 11005KT 02/M15 A3021 RMK A01 T00171147  RH  029%=      5-min Rain = 0
KBY1 130152Z 11005KT 02/M15 A3021 RMK A01 T00161147  RH  029%=      5-min Rain = 0
KBY1 130153Z 11004KT 01/M15 A3021 RMK A01 T00141148  RH  029%=      5-min Rain = 0
KBY1 130154Z 11005KT 01/M15 A3021 RMK A01 T00141147  RH  029%=      5-min Rain = 0
KBY1 130155Z 10004KT 01/M15 A3021 RMK A01 T00121148  RH  029%=      5-min Rain = 0
KBY1 130156Z 10004KT 01/M15 A3021 RMK A01 T00111148  RH  030%=      5-min Rain = 0
KBY1 130157Z 09004KT 01/M15 A3021 RMK A01 T00091148  RH  030%=      5-min Rain = 0
KBY1 130158Z 09005KT 01/M15 A3021 RMK A01 T00081148  RH  030%=      5-min Rain = 0
KBY1 130159Z 10005KT 01/M15 A3021 RMK A01 T00071148  RH  030%=      5-min Rain = 0
KBY1 130200Z 10005KT 01/M15 A3021 RMK A01 T00061148  RH  030%=      5-min Rain = 0
KBY1 130201Z 10005KT 01/M15 A3022 RMK A01 T00061148  RH  031%=      5-min Rain = 0
KBY1 130202Z 10005KT 01/M15 A3022 RMK A01 T00051148  RH  031%=      5-min Rain = 0
KBY1 130203Z 10005KT 00/M15 A3022 RMK A01 T00041148  RH  031%=      5-min Rain = 0
KBY1 130204Z 10004KT 00/M15 A3022 RMK A01 T00041148  RH  031%=      5-min Rain = 0
KBY1 130205Z 10004KT 00/M15 A3022 RMK A01 T00041148  RH  031%=      5-min Rain = 0
KBY1 130206Z 10004KT 00/M15 A3022 RMK A01 T00041147  RH  031%=      5-min Rain = 0
KBY1 130207Z 10004KT 00/M15 A3022 RMK A01 T00041147  RH  031%=      5-min Rain = 0
KBY1 130208Z 11004KT 00/M15 A3022 RMK A01 T00041147  RH  031%=      5-min Rain = 0
KBY1 130209Z 11004KT 00/M15 A3022 RMK A01 T00041148  RH  031%=      5-min Rain = 0
KBY1 130210Z 11003KT 00/M15 A3022 RMK A01 T00041148  RH  031%=      5-min Rain = 0
KBY1 130211Z 11003KT 00/M15 A3022 RMK A01 T00041148  RH  031%=      5-min Rain = 0
KBY1 130212Z 11004KT 00/M15 A3022 RMK A01 T00041148  RH  031%=      5-min Rain = 0
KBY1 130213Z 11004KT 01/M15 A3022 RMK A01 T00051147  RH  031%=      5-min Rain = 0
KBY1 130214Z 11004KT 01/M15 A3022 RMK A01 T00051147  RH  031%=      5-min Rain = 0
KBY1 130215Z 11004KT 00/M15 A3022 RMK A01 T00041148  RH  031%=      5-min Rain = 0
KBY1 130216Z 10004KT 00/M15 A3022 RMK A01 T00031148  RH  031%=      5-min Rain = 0
KBY1 130217Z 10003KT 00/M15 A3022 RMK A01 T00031148  RH  031%=      5-min Rain = 0
KBY1 130218Z 10004KT 00/M15 A3022 RMK A01 T00031148  RH  031%=      5-min Rain = 0
KBY1 130219Z 10004KT 00/M15 A3022 RMK A01 T00031148  RH  031%=      5-min Rain = 0
KBY1 130220Z 10003KT 00/M15 A3023 RMK A01 T00021148  RH  031%=      5-min Rain = 0
KBY1 130221Z 10003KT 00/M15 A3023 RMK A01 T00021147  RH  031%=      5-min Rain = 0
KBY1 130222Z 09003KT 00/M15 A3023 RMK A01 T00021148  RH  031%=      5-min Rain = 0
KBY1 130223Z 09003KT 00/M15 A3023 RMK A01 T00021147  RH  031%=      5-min Rain = 0
KBY1 130224Z 08003KT 00/M15 A3023 RMK A01 T00031147  RH  032%=      5-min Rain = 0
KBY1 130225Z 08003KT 00/M15 A3023 RMK A01 T00041147  RH  031%=      5-min Rain = 0
KBY1 130226Z 09003KT 00/M15 A3023 RMK A01 T00041147  RH  031%=      5-min Rain = 0
KBY1 130227Z 09003KT 00/M15 A3023 RMK A01 T00041147  RH  031%=      5-min Rain = 0
KBY1 130228Z 09003KT 00/M15 A3023 RMK A01 T00031147  RH  031%=      5-min Rain = 0
KBY1 130229Z 09003KT 00/M15 A3023 RMK A01 T00041147  RH  031%=      5-min Rain = 0
KBY1 130230Z 09003KT 00/M15 A3023 RMK A01 T00041147  RH  031%=      5-min Rain = 0
KBY1 130231Z 10003KT 00/M15 A3023 RMK A01 T00031147  RH  031%=      5-min Rain = 0
KBY1 130232Z 10003KT 00/M15 A3023 RMK A01 T00031147  RH  031%=      5-min Rain = 0
KBY1 130233Z 10003KT 00/M15 A3023 RMK A01 T00011148  RH  032%=      5-min Rain = 0
KBY1 130234Z 11004KT 00/15 A3023 RMK A01 T00000-148  RH  032%=      5-min Rain = 0
KBY1 130235Z 11003KT 00/15 A3024 RMK A01 T00-00-147  RH  032%=      5-min Rain = 0
KBY1 130236Z 11003KT 00/15 A3024 RMK A01 T00-00-148  RH  032%=      5-min Rain = 0
KBY1 130237Z 11003KT M00/M15 A3024 RMK A01 T10011148  RH  032%=      5-min Rain = 0
KBY1 130238Z 11003KT M00/M15 A3024 RMK A01 T10011148  RH  032%=      5-min Rain = 0
KBY1 130239Z 11003KT M00/M15 A3024 RMK A01 T10021148  RH  032%=      5-min Rain = 0
KBY1 130240Z 10003KT M00/M15 A3024 RMK A01 T10021148  RH  032%=      5-min Rain = 0
KBY1 130241Z 10002KT M00/M15 A3024 RMK A01 T10021148  RH  032%=      5-min Rain = 0
KBY1 130242Z 10002KT M00/M15 A3024 RMK A01 T10021147  RH  032%=      5-min Rain = 0
KBY1 130243Z 10002KT M00/M15 A3024 RMK A01 T10021147  RH  032%=      5-min Rain = 0
KBY1 130244Z 10003KT M00/M15 A3024 RMK A01 T10021148  RH  032%=      5-min Rain = 0
KBY1 130245Z 10003KT M00/M15 A3024 RMK A01 T10021148  RH  032%=      5-min Rain = 0
KBY1 130246Z 10003KT M00/M15 A3024 RMK A01 T10031148  RH  033%=      5-min Rain = 0
KBY1 130247Z 10003KT M00/M15 A3024 RMK A01 T10031148  RH  033%=      5-min Rain = 0
KBY1 130248Z 09003KT M00/M15 A3024 RMK A01 T10041148  RH  033%=      5-min Rain = 0
KBY1 130249Z 09004KT M01/M15 A3024 RMK A01 T10051148  RH  033%=      5-min Rain = 0
KBY1 130250Z 09004KT M01/M15 A3024 RMK A01 T10061149  RH  033%=      5-min Rain = 0
KBY1 130251Z 09004KT M01/M15 A3024 RMK A01 T10071148  RH  033%=      5-min Rain = 0
KBY1 130252Z 09004KT M01/M15 A3024 RMK A01 T10081148  RH  034%=      5-min Rain = 0
KBY1 130253Z 10004KT M01/M15 A3024 RMK A01 T10081149  RH  034%=      5-min Rain = 0
KBY1 130254Z 10004KT M01/M15 A3024 RMK A01 T10091149  RH  034%=      5-min Rain = 0
KBY1 130255Z 10004KT M01/M15 A3024 RMK A01 T10101149  RH  034%=      5-min Rain = 0
KBY1 130256Z 10004KT M01/M15 A3025 RMK A01 T10111149  RH  034%=      5-min Rain = 0
KBY1 130257Z 10004KT M01/M15 A3025 RMK A01 T10121149  RH  034%=      5-min Rain = 0
KBY1 130258Z 10004KT M01/M15 A3025 RMK A01 T10121148  RH  035%=      5-min Rain = 0
KBY1 130259Z 09003KT M01/M15 A3025 RMK A01 T10121148  RH  035%=      5-min Rain = 0
KBY1 130300Z 09003KT M01/M15 A3025 RMK A01 T10121147  RH  035%=      5-min Rain = 0
KBY1 130301Z 09003KT M01/M15 A3025 RMK A01 T10121147  RH  035%=      5-min Rain = 0
KBY1 130302Z 10002KT M01/M15 A3025 RMK A01 T10121147  RH  035%=      5-min Rain = 0
KBY1 130303Z 10002KT M01/M15 A3025 RMK A01 T10131147  RH  035%=      5-min Rain = 0
KBY1 130304Z 10003KT M01/M15 A3025 RMK A01 T10131147  RH  035%=      5-min Rain = 0
KBY1 130305Z 09003KT M01/M15 A3025 RMK A01 T10131147  RH  035%=      5-min Rain = 0
KBY1 130306Z 09003KT M01/M15 A3025 RMK A01 T10131147  RH  035%=      5-min Rain = 0
KBY1 130307Z 09003KT M01/M15 A3025 RMK A01 T10131147  RH  035%=      5-min Rain = 0
KBY1 130308Z 09003KT M01/M15 A3025 RMK A01 T10131147  RH  035%=      5-min Rain = 0
KBY1 130309Z 09004KT M01/M15 A3025 RMK A01 T10131147  RH  035%=      5-min Rain = 0
KBY1 130310Z 09004KT M01/M15 A3025 RMK A01 T10121147  RH  035%=      5-min Rain = 0
KBY1 130311Z 09005KT M01/M15 A3025 RMK A01 T10121147  RH  035%=      5-min Rain = 0
KBY1 130312Z 09004KT M01/M15 A3025 RMK A01 T10121147  RH  035%=      5-min Rain = 0
KBY1 130313Z 10003KT M01/M15 A3025 RMK A01 T10131147  RH  035%=      5-min Rain = 0
KBY1 130314Z 10004KT M01/M15 A3025 RMK A01 T10131147  RH  035%=      5-min Rain = 0
KBY1 130315Z 10004KT M01/M15 A3025 RMK A01 T10141148  RH  035%=      5-min Rain = 0
KBY1 130316Z 10004KT M01/M15 A3025 RMK A01 T10141149  RH  035%=      5-min Rain = 0
KBY1 130317Z 09004KT M01/M15 A3025 RMK A01 T10141149  RH  035%=      5-min Rain = 0
KBY1 130318Z 10004KT M01/M15 A3025 RMK A01 T10141148  RH  035%=      5-min Rain = 0
KBY1 130319Z 10004KT M01/M15 A3025 RMK A01 T10141148  RH  035%=      5-min Rain = 0
KBY1 130320Z 10004KT M01/M15 A3025 RMK A01 T10141148  RH  035%=      5-min Rain = 0
KBY1 130321Z 10004KT M01/M15 A3025 RMK A01 T10141148  RH  035%=      5-min Rain = 0
KBY1 130322Z 09004KT M01/M15 A3025 RMK A01 T10141148  RH  035%=      5-min Rain = 0
KBY1 130323Z 09004KT M01/M15 A3025 RMK A01 T10141148  RH  035%=      5-min Rain = 0
KBY1 130324Z 09004KT M01/M15 A3025 RMK A01 T10141148  RH  035%=      5-min Rain = 0
KBY1 130325Z 09004KT M02/M15 A3025 RMK A01 T10151148  RH  035%=      5-min Rain = 0
KBY1 130326Z 09004KT M02/M15 A3025 RMK A01 T10161149  RH  036%=      5-min Rain = 0
KBY1 130327Z 09004KT M02/M15 A3025 RMK A01 T10171149  RH  036%=      5-min Rain = 0
KBY1 130328Z 09004KT M02/M15 A3025 RMK A01 T10171148  RH  036%=      5-min Rain = 0
KBY1 130329Z 09004KT M02/M15 A3025 RMK A01 T10171148  RH  036%=      5-min Rain = 0
KBY1 130330Z 09004KT M02/M15 A3025 RMK A01 T10171148  RH  036%=      5-min Rain = 0
KBY1 130331Z 09005KT M02/M15 A3025 RMK A01 T10181148  RH  036%=      5-min Rain = 0
KBY1 130332Z 09005KT M02/M15 A3025 RMK A01 T10181149  RH  036%=      5-min Rain = 0
KBY1 130333Z 09005KT M02/M15 A3025 RMK A01 T10191149  RH  036%=      5-min Rain = 0
KBY1 130334Z 09005KT M02/M15 A3025 RMK A01 T10201149  RH  037%=      5-min Rain = 0
KBY1 130335Z 09005KT M02/M15 A3025 RMK A01 T10211149  RH  037%=      5-min Rain = 0
KBY1 130336Z 09005KT M02/M15 A3025 RMK A01 T10211148  RH  037%=      5-min Rain = 0
KBY1 130337Z 09004KT M02/M15 A3025 RMK A01 T10201147  RH  037%=      5-min Rain = 0
KBY1 130338Z 10005KT M02/M15 A3025 RMK A01 T10201147  RH  037%=      5-min Rain = 0
KBY1 130339Z 10005KT M02/M15 A3025 RMK A01 T10201147  RH  037%=      5-min Rain = 0
KBY1 130340Z 09004KT M02/M15 A3025 RMK A01 T10191146  RH  037%=      5-min Rain = 0
KBY1 130341Z 10004KT M02/M15 A3025 RMK A01 T10191146  RH  037%=      5-min Rain = 0
KBY1 130342Z 10005KT M02/M15 A3025 RMK A01 T10191146  RH  037%=      5-min Rain = 0
KBY1 130343Z 10005KT M02/M15 A3025 RMK A01 T10201147  RH  037%=      5-min Rain = 0
KBY1 130344Z 09005KT M02/M15 A3025 RMK A01 T10211147  RH  037%=      5-min Rain = 0
KBY1 130345Z 09005KT M02/M15 A3025 RMK A01 T10211147  RH  038%=      5-min Rain = 0
KBY1 130346Z 09005KT M02/M15 A3025 RMK A01 T10221147  RH  038%=      5-min Rain = 0
KBY1 130347Z 09006KT M02/M15 A3025 RMK A01 T10231147  RH  038%=      5-min Rain = 0
KBY1 130348Z 09005KT M02/M15 A3025 RMK A01 T10241147  RH  038%=      5-min Rain = 0
KBY1 130349Z 09006KT M02/M15 A3025 RMK A01 T10241146  RH  039%=      5-min Rain = 0
KBY1 130350Z 09005KT M02/M15 A3025 RMK A01 T10241146  RH  039%=      5-min Rain = 0
KBY1 130351Z 09006KT M02/M15 A3025 RMK A01 T10241146  RH  039%=      5-min Rain = 0
KBY1 130352Z 09005KT M03/M15 A3025 RMK A01 T10251146  RH  039%=      5-min Rain = 0
KBY1 130353Z 09005KT M03/M15 A3025 RMK A01 T10261147  RH  039%=      5-min Rain = 0
KBY1 130354Z 09006KT M03/M15 A3025 RMK A01 T10261147  RH  039%=      5-min Rain = 0
KBY1 130355Z 09006KT M03/M15 A3025 RMK A01 T10271146  RH  039%=      5-min Rain = 0
KBY1 130356Z 09006KT M03/M15 A3025 RMK A01 T10271146  RH  040%=      5-min Rain = 0
KBY1 130357Z 09005KT M03/M15 A3025 RMK A01 T10271145  RH  040%=      5-min Rain = 0
KBY1 130358Z 09005KT M03/M15 A3025 RMK A01 T10271145  RH  040%=      5-min Rain = 0
KBY1 130359Z 09006KT M03/M15 A3025 RMK A01 T10271145  RH  040%=      5-min Rain = 0
KBY1 130400Z 09006KT M03/M15 A3025 RMK A01 T10271145  RH  040%=      5-min Rain = 0
KBY1 130401Z 10006KT M03/M15 A3025 RMK A01 T10271145  RH  040%=      5-min Rain = 0
KBY1 130402Z 10006KT M03/M15 A3025 RMK A01 T10281145  RH  040%=      5-min Rain = 0
KBY1 130403Z 10006KT M03/M15 A3024 RMK A01 T10281145  RH  040%=      5-min Rain = 0
KBY1 130404Z 10006KT M03/M15 A3025 RMK A01 T10291145  RH  040%=      5-min Rain = 0
KBY1 130405Z 10006KT M03/M15 A3025 RMK A01 T10291145  RH  041%=      5-min Rain = 0
KBY1 130406Z 09005KT M03/M14 A3025 RMK A01 T10291144  RH  041%=      5-min Rain = 0
KBY1 130407Z 09004KT M03/M14 A3025 RMK A01 T10291144  RH  041%=      5-min Rain = 0
KBY1 130408Z 09004KT M03/M14 A3025 RMK A01 T10301144  RH  041%=      5-min Rain = 0
KBY1 130409Z 08004KT M03/M14 A3025 RMK A01 T10301144  RH  041%=      5-min Rain = 0
KBY1 130410Z 08004KT M03/M14 A3025 RMK A01 T10291143  RH  041%=      5-min Rain = 0
KBY1 130411Z 09005KT M03/M14 A3025 RMK A01 T10291143  RH  041%=      5-min Rain = 0
KBY1 130412Z 09004KT M03/M14 A3025 RMK A01 T10281142  RH  041%=      5-min Rain = 0
KBY1 130413Z 09005KT M03/M14 A3025 RMK A01 T10261142  RH  041%=      5-min Rain = 0
KBY1 130414Z 09004KT M03/M14 A3025 RMK A01 T10251142  RH  040%=      5-min Rain = 0
KBY1 130415Z 09005KT M03/M14 A3025 RMK A01 T10261142  RH  040%=      5-min Rain = 0
KBY1 130416Z 09004KT M03/M14 A3025 RMK A01 T10251142  RH  040%=      5-min Rain = 0
KBY1 130417Z 08005KT M02/M14 A3025 RMK A01 T10241141  RH  040%=      5-min Rain = 0
KBY1 130418Z 08005KT M02/M14 A3025 RMK A01 T10231141  RH  040%=      5-min Rain = 0
KBY1 130419Z 09005KT M02/M14 A3025 RMK A01 T10231142  RH  040%=      5-min Rain = 0
KBY1 130420Z 08005KT M02/M14 A3025 RMK A01 T10231142  RH  040%=      5-min Rain = 0
KBY1 130421Z 08004KT M02/M14 A3025 RMK A01 T10231141  RH  040%=      5-min Rain = 0
KBY1 130422Z 08005KT M02/M14 A3025 RMK A01 T10231141  RH  040%=      5-min Rain = 0
KBY1 130423Z 07005KT M02/M14 A3025 RMK A01 T10221140  RH  040%=      5-min Rain = 0
KBY1 130424Z 07005KT M02/M14 A3025 RMK A01 T10211140  RH  040%=      5-min Rain = 0
KBY1 130425Z 07005KT M02/M14 A3025 RMK A01 T10211140  RH  040%=      5-min Rain = 0
KBY1 130426Z 07006KT M02/M14 A3025 RMK A01 T10211140  RH  040%=      5-min Rain = 0
KBY1 130427Z 06006KT M02/M14 A3025 RMK A01 T10201140  RH  040%=      5-min Rain = 0
KBY1 130428Z 07006KT M02/M14 A3025 RMK A01 T10201139  RH  040%=      5-min Rain = 0
KBY1 130429Z 07006KT M02/M14 A3025 RMK A01 T10191139  RH  039%=      5-min Rain = 0
KBY1 130430Z 07006KT M02/M14 A3025 RMK A01 T10191139  RH  039%=      5-min Rain = 0
KBY1 130431Z 08006KT M02/M14 A3026 RMK A01 T10191140  RH  039%=      5-min Rain = 0
KBY1 130432Z 08006KT M02/M14 A3026 RMK A01 T10191140  RH  039%=      5-min Rain = 0
KBY1 130433Z 09006KT M02/M14 A3026 RMK A01 T10191140  RH  039%=      5-min Rain = 0
KBY1 130434Z 09006KT M02/M14 A3026 RMK A01 T10181140  RH  039%=      5-min Rain = 0
KBY1 130435Z 10006KT M02/M14 A3026 RMK A01 T10181140  RH  039%=      5-min Rain = 0
KBY1 130436Z 10006KT M02/M14 A3026 RMK A01 T10181140  RH  039%=      5-min Rain = 0
KBY1 130437Z 11007KT M02/M14 A3026 RMK A01 T10191141  RH  039%=      5-min Rain = 0
KBY1 130438Z 11007KT M02/M14 A3025 RMK A01 T10191141  RH  039%=      5-min Rain = 0
KBY1 130439Z 12006KT M02/M14 A3025 RMK A01 T10191141  RH  039%=      5-min Rain = 0
KBY1 130440Z 12007KT M02/M14 A3025 RMK A01 T10191141  RH  039%=      5-min Rain = 0
KBY1 130441Z 12007KT M02/M14 A3025 RMK A01 T10201142  RH  039%=      5-min Rain = 0
KBY1 130442Z 12007KT M02/M14 A3025 RMK A01 T10211142  RH  039%=      5-min Rain = 0
KBY1 130443Z 12007KT M02/M14 A3025 RMK A01 T10221142  RH  039%=      5-min Rain = 0
KBY1 130444Z 12007KT M02/M14 A3025 RMK A01 T10221141  RH  040%=      5-min Rain = 0
KBY1 130445Z 12007KT M02/M14 A3025 RMK A01 T10231141  RH  040%=      5-min Rain = 0
KBY1 130446Z 12006KT M02/M14 A3025 RMK A01 T10231141  RH  040%=      5-min Rain = 0
KBY1 130447Z 12006KT M02/M14 A3025 RMK A01 T10231141  RH  040%=      5-min Rain = 0
KBY1 130448Z 12006KT M02/M14 A3025 RMK A01 T10231141  RH  040%=      5-min Rain = 0
KBY1 130449Z 11006KT M02/M14 A3025 RMK A01 T10231141  RH  040%=      5-min Rain = 0
KBY1 130450Z 12006KT M02/M14 A3025 RMK A01 T10241142  RH  040%=      5-min Rain = 0
KBY1 130451Z 11006KT M02/M14 A3025 RMK A01 T10241142  RH  040%=      5-min Rain = 0
KBY1 130452Z 11006KT M03/M14 A3025 RMK A01 T10251142  RH  040%=      5-min Rain = 0
KBY1 130453Z 11006KT M03/M14 A3025 RMK A01 T10261143  RH  040%=      5-min Rain = 0
KBY1 130454Z 11006KT M03/M14 A3025 RMK A01 T10271143  RH  041%=      5-min Rain = 0
KBY1 130455Z 11006KT M03/M14 A3025 RMK A01 T10291143  RH  041%=      5-min Rain = 0
KBY1 130456Z 11007KT M03/M14 A3025 RMK A01 T10301143  RH  041%=      5-min Rain = 0
KBY1 130457Z 11006KT M03/M14 A3025 RMK A01 T10301143  RH  041%=      5-min Rain = 0
KBY1 130458Z 12006KT M03/M14 A3025 RMK A01 T10311143  RH  042%=      5-min Rain = 0
KBY1 130459Z 11006KT M03/M14 A3025 RMK A01 T10321143  RH  042%=      5-min Rain = 0
KBY1 130500Z 11006KT M03/M14 A3025 RMK A01 T10311142  RH  042%=      5-min Rain = 0
KBY1 130501Z 11006KT M03/M14 A3026 RMK A01 T10321142  RH  042%=      5-min Rain = 0
KBY1 130502Z 10005KT M03/M14 A3026 RMK A01 T10321143  RH  042%=      5-min Rain = 0
KBY1 130503Z 10005KT M03/M14 A3026 RMK A01 T10341143  RH  042%=      5-min Rain = 0
KBY1 130504Z 10005KT M04/M14 A3026 RMK A01 T10351144  RH  043%=      5-min Rain = 0
KBY1 130505Z 10006KT M04/M14 A3026 RMK A01 T10371144  RH  043%=      5-min Rain = 0
KBY1 130506Z 10005KT M04/M14 A3026 RMK A01 T10381144  RH  043%=      5-min Rain = 0
KBY1 130507Z 09005KT M04/M14 A3026 RMK A01 T10391144  RH  044%=      5-min Rain = 0
KBY1 130508Z 10006KT M04/M14 A3026 RMK A01 T10401144  RH  044%=      5-min Rain = 0
KBY1 130509Z 10006KT M04/M14 A3026 RMK A01 T10411144  RH  045%=      5-min Rain = 0
KBY1 130510Z 10006KT M04/M14 A3026 RMK A01 T10421144  RH  045%=      5-min Rain = 0
KBY1 130511Z 10006KT M04/M14 A3026 RMK A01 T10421144  RH  045%=      5-min Rain = 0
KBY1 130512Z 11005KT M04/M14 A3026 RMK A01 T10421144  RH  045%=      5-min Rain = 0
KBY1 130513Z 11005KT M04/M14 A3026 RMK A01 T10421143  RH  045%=      5-min Rain = 0
KBY1 130514Z 12006KT M04/M14 A3026 RMK A01 T10421143  RH  045%=      5-min Rain = 0
KBY1 130515Z 12006KT M04/M14 A3026 RMK A01 T10421144  RH  045%=      5-min Rain = 0
KBY1 130516Z 13006KT M04/M14 A3026 RMK A01 T10431144  RH  045%=      5-min Rain = 0
KBY1 130517Z 13005KT M04/M14 A3026 RMK A01 T10431144  RH  045%=      5-min Rain = 0
KBY1 130518Z 13005KT M04/M14 A3026 RMK A01 T10441143  RH  046%=      5-min Rain = 0
KBY1 130519Z 13005KT M04/M14 A3026 RMK A01 T10431143  RH  046%=      5-min Rain = 0
KBY1 130520Z 13005KT M04/M14 A3026 RMK A01 T10431142  RH  046%=      5-min Rain = 0
KBY1 130521Z 13005KT M04/M14 A3026 RMK A01 T10421142  RH  046%=      5-min Rain = 0
KBY1 130522Z 13005KT M04/M14 A3026 RMK A01 T10431143  RH  046%=      5-min Rain = 0
KBY1 130523Z 13005KT M04/M14 A3026 RMK A01 T10431143  RH  046%=      5-min Rain = 0
KBY1 130524Z 13006KT M04/M14 A3025 RMK A01 T10421143  RH  046%=      5-min Rain = 0
KBY1 130525Z 13005KT M04/M14 A3025 RMK A01 T10421142  RH  046%=      5-min Rain = 0
KBY1 130526Z 13005KT M04/M14 A3025 RMK A01 T10411142  RH  046%=      5-min Rain = 0
KBY1 130527Z 13005KT M04/M14 A3025 RMK A01 T10411141  RH  045%=      5-min Rain = 0
KBY1 130528Z 13005KT M04/M14 A3025 RMK A01 T10401141  RH  045%=      5-min Rain = 0
KBY1 130529Z 12005KT M04/M14 A3025 RMK A01 T10391141  RH  045%=      5-min Rain = 0
KBY1 130530Z 12004KT M04/M14 A3025 RMK A01 T10391141  RH  045%=      5-min Rain = 0
KBY1 130531Z 12003KT M04/M14 A3026 RMK A01 T10391141  RH  045%=      5-min Rain = 0
KBY1 130532Z 12004KT M04/M14 A3026 RMK A01 T10391140  RH  045%=      5-min Rain = 0
KBY1 130533Z 13004KT M04/M14 A3026 RMK A01 T10401140  RH  046%=      5-min Rain = 0
KBY1 130534Z 13003KT M04/M14 A3026 RMK A01 T10401140  RH  046%=      5-min Rain = 0
KBY1 130535Z 13002KT M04/M14 A3026 RMK A01 T10401140  RH  046%=      5-min Rain = 0
KBY1 130536Z 12002KT M04/M14 A3026 RMK A01 T10401141  RH  046%=      5-min Rain = 0
KBY1 130537Z 11001KT M04/M14 A3026 RMK A01 T10421141  RH  046%=      5-min Rain = 0
KBY1 130538Z 09001KT M04/M14 A3026 RMK A01 T10431142  RH  046%=      5-min Rain = 0
KBY1 130539Z 09001KT M04/M14 A3026 RMK A01 T10441142  RH  046%=      5-min Rain = 0
KBY1 130540Z 08002KT M04/M14 A3026 RMK A01 T10441141  RH  047%=      5-min Rain = 0
KBY1 130541Z 09002KT M04/M14 A3026 RMK A01 T10441141  RH  047%=      5-min Rain = 0
KBY1 130542Z 08002KT M05/M14 A3026 RMK A01 T10451141  RH  047%=      5-min Rain = 0
KBY1 130543Z 06003KT M05/M14 A3026 RMK A01 T10451141  RH  047%=      5-min Rain = 0
KBY1 130544Z 06003KT M05/M14 A3026 RMK A01 T10451141  RH  047%=      5-min Rain = 0
KBY1 130545Z 07004KT M05/M14 A3026 RMK A01 T10451140  RH  047%=      5-min Rain = 0
KBY1 130546Z 06004KT M04/M14 A3026 RMK A01 T10441140  RH  047%=      5-min Rain = 0
KBY1 130547Z 06005KT M04/M14 A3026 RMK A01 T10431139  RH  047%=      5-min Rain = 0
KBY1 130548Z 06005KT M04/M14 A3026 RMK A01 T10411138  RH  047%=      5-min Rain = 0
KBY1 130549Z 06006KT M04/M14 A3026 RMK A01 T10391137  RH  046%=      5-min Rain = 0
KBY1 130550Z 08006KT M04/M14 A3026 RMK A01 T10361135  RH  046%=      5-min Rain = 0
KBY1 130551Z 08005KT M03/M13 A3026 RMK A01 T10311131  RH  046%=      5-min Rain = 0
KBY1 130552Z 08005KT M03/M13 A3026 RMK A01 T10281131  RH  045%=      5-min Rain = 0
KBY1 130553Z 10005KT M03/M13 A3026 RMK A01 T10271133  RH  044%=      5-min Rain = 0
KBY1 130554Z 10005KT M03/M13 A3026 RMK A01 T10271134  RH  044%=      5-min Rain = 0
KBY1 130555Z 11006KT M03/M13 A3026 RMK A01 T10281134  RH  044%=      5-min Rain = 0
KBY1 130556Z 11005KT M03/M13 A3026 RMK A01 T10281134  RH  044%=      5-min Rain = 0
KBY1 130557Z 10005KT M03/M14 A3026 RMK A01 T10281135  RH  044%=      5-min Rain = 0
KBY1 130558Z 11005KT M03/M14 A3026 RMK A01 T10291136  RH  044%=      5-min Rain = 0
KBY1 130559Z 11005KT M03/M14 A3026 RMK A01 T10311137  RH  044%=      5-min Rain = 0

Page generated in 0.034 seconds.